PORTS® Data Listing: 8454049 Quonset Point, RI

CO-OPS RAW PORTS DATA

************************      PRELIMINARY DATA      ************************** 

     THIS RAW DATA HAS NOT BEEN SUBJECT TO THE NATIONAL OCEAN SERVICE'S        
     QUALITY CONTROL OR QUALITY ASSURANCE PROCEDURES AND DOES NOT MEET         
     THE CRITERIA AND STANDARDS OF OFFICIAL NATIONAL OCEAN SERVICE             
     DATA.  IT IS RELEASED FOR LIMITED PUBLIC USE AS PRELIMINARY DATA TO       
     BE USED ONLY WITH APPROPRIATE CAUTION.                                    

************************      PRELIMINARY DATA      ************************** 


       CD   -   Calendar date
       T    -   Time
       TZ   -   Timezone
       PW   -   Predicted water level (feet above MLLW)
       OW   -   Observed water level (feet above MLLW)
       WS   -   Wind speed (knots)
       WD   -   Wind direction (degrees true)
       WG   -   Wind gust (knots)
       AT   -   Air temperature (degrees farenheit)
       WT   -   Water temperature (degrees farenheit)
       AP   -   Air pressure (millibars)
       SA   -   Salinty (PSU - Practical Salinity Units)
       SG   -   Specific gravity
       RH   -   Relative humidity
       AG   -   Air gap (feet)
       VI   -   Visibility (nautical miles)

       ** NOTE **
       A variable that has its data fields filled with "9"s, indicates that
       data was not collected for that sample period.
       **********


STATION NAME: Quonset Point (8454049)
****************************************************************************************************
    CD       T    TZ    PW     OW    WS   WD   WG    AT    WT    AP    SA    SG     RH    AG   VI
****************************************************************************************************
2019/12/11 17:54 EST    3.08   3.26    5  252    7  32.9  43.7 1025.9 22.1  1.018 -99.9 -99.99 -9.99
2019/12/11 18:00 EST    3.16   3.36    7  239    8  32.9  43.5 1026.0 22.1  1.018 -99.9 -99.99 -9.99
2019/12/11 18:06 EST    3.23   3.41    6  234    7  32.5  43.5 1026.0 22.0  1.018 -99.9 -99.99 -9.99
2019/12/11 18:12 EST    3.29   3.45    6  243    9  32.5  43.5 1026.0 22.0  1.018 -99.9 -99.99 -9.99
2019/12/11 18:18 EST    3.35   3.50    5  238    7  32.7  43.5 1026.1 22.1  1.018 -99.9 -99.99 -9.99
2019/12/11 18:24 EST    3.41   3.56    5  230    7  32.5  43.7 1026.2 22.0  1.018 -99.9 -99.99 -9.99
2019/12/11 18:30 EST    3.45   3.63    8  230   10  32.5  43.7 1026.5 22.0  1.018 -99.9 -99.99 -9.99
2019/12/11 18:36 EST    3.50   3.71    7  223    9  32.5  43.7 1026.5 22.1  1.018 -99.9 -99.99 -9.99
2019/12/11 18:42 EST    3.53   3.71    8  218   10  32.2  43.5 1026.4 22.1  1.018 -99.9 -99.99 -9.99
2019/12/11 18:48 EST    3.56   3.71    8  217    9  32.2  43.5 1026.6 22.1  1.018 -99.9 -99.99 -9.99
2019/12/11 18:54 EST    3.58   3.75    8  217    9  32.4  43.5 1026.5 22.1  1.018 -99.9 -99.99 -9.99
2019/12/11 19:00 EST    3.60   3.72    9  230   11  32.4  43.5 1026.6 22.1  1.018 -99.9 -99.99 -9.99
2019/12/11 19:06 EST    3.61   3.64    8  234   10  32.2  43.5 1026.6 22.1  1.018 -99.9 -99.99 -9.99
2019/12/11 19:12 EST    3.61   3.63    7  236   10  31.5  43.7 1026.6 22.1  1.018 -99.9 -99.99 -9.99
2019/12/11 19:18 EST    3.61   3.64    8  235   11  32.2  43.5 1026.5 22.1  1.018 -99.9 -99.99 -9.99
2019/12/11 19:24 EST    3.60   3.61    8  244   11  32.2  43.7 1026.6 22.1  1.018 -99.9 -99.99 -9.99
2019/12/11 19:30 EST    3.58   3.58    7  246   11  32.5  43.5 1026.5 22.2  1.018 -99.9 -99.99 -9.99
2019/12/11 19:36 EST    3.55   3.60    8  246   11  32.7  43.7 1026.5 22.1  1.018 -99.9 -99.99 -9.99
2019/12/11 19:42 EST    3.52   3.55    7  245   11  32.9  43.5 1026.5 22.2  1.018 -99.9 -99.99 -9.99
2019/12/11 19:48 EST    3.48   3.48    7  253   11  32.2  43.5 1026.5 22.1  1.018 -99.9 -99.99 -9.99
2019/12/11 19:54 EST    3.44   3.47    5  265   10  32.4  43.5 1026.6 22.1  1.018 -99.9 -99.99 -9.99
2019/12/11 20:00 EST    3.39   3.48    6  249    9  32.7  43.5 1026.6 21.9  1.018 -99.9 -99.99 -9.99
2019/12/11 20:06 EST    3.33   3.40    6  254   10  32.5  43.5 1026.6 22.0  1.018 -99.9 -99.99 -9.99
2019/12/11 20:12 EST    3.27   3.31    7  250   11  32.4  43.5 1026.6 22.0  1.018 -99.9 -99.99 -9.99
2019/12/11 20:18 EST    3.20   3.21    7  249   10  32.2  43.5 1026.6 22.0  1.018 -99.9 -99.99 -9.99
2019/12/11 20:24 EST    3.13   3.12    6  252    9  32.4  43.5 1026.6 22.0  1.018 -99.9 -99.99 -9.99
2019/12/11 20:30 EST    3.05   3.03    5  262   10  32.2  43.5 1026.7 22.0  1.018 -99.9 -99.99 -9.99
2019/12/11 20:36 EST    2.96   2.96    4  271    7  31.8  43.5 1026.7 22.0  1.018 -99.9 -99.99 -9.99
2019/12/11 20:42 EST    2.87   2.84    5  262    9  32.2  43.5 1026.7 22.0  1.018 -99.9 -99.99 -9.99
2019/12/11 20:48 EST    2.78   2.72    5  261    8  32.4  43.5 1026.7 22.0  1.018 -99.9 -99.99 -9.99
2019/12/11 20:54 EST    2.68   2.59    7  253   10  32.2  43.5 1026.7 22.0  1.018 -99.9 -99.99 -9.99
2019/12/11 21:00 EST    2.58   2.47    8  249   10  32.2  43.5 1026.8 22.1  1.018 -99.9 -99.99 -9.99
2019/12/11 21:06 EST    2.48   2.35    7  254   11  32.4  43.5 1026.8 22.1  1.018 -99.9 -99.99 -9.99
2019/12/11 21:12 EST    2.37   2.22    8  248   11  32.2  43.5 1026.8 22.1  1.018 -99.9 -99.99 -9.99
2019/12/11 21:18 EST    2.26   2.06    8  248   10  32.5  43.5 1026.8 22.1  1.018 -99.9 -99.99 -9.99
2019/12/11 21:24 EST    2.15   1.91    7  247   10  32.2  43.5 1026.9 22.1  1.018 -99.9 -99.99 -9.99
2019/12/11 21:30 EST    2.04   1.79    8  249   10  31.8  43.5 1026.8 22.1  1.018 -99.9 -99.99 -9.99
2019/12/11 21:36 EST    1.92   1.66    6  260   10  31.8  43.5 1026.9 22.1  1.018 -99.9 -99.99 -9.99
2019/12/11 21:42 EST    1.81   1.52    5  256    8  32.2  43.5 1026.9 22.1  1.018 -99.9 -99.99 -9.99
2019/12/11 21:48 EST    1.69   1.37    6  260    9  32.0  43.5 1027.0 22.1  1.018 -99.9 -99.99 -9.99
2019/12/11 21:54 EST    1.57   1.27    5  274    9  31.8  43.5 1027.1 22.1  1.018 -99.9 -99.99 -9.99
2019/12/11 22:00 EST    1.46   1.17    4  273    8  32.0  43.5 1027.2 22.1  1.018 -99.9 -99.99 -9.99
2019/12/11 22:06 EST    1.34   1.05    4  284    7  31.8  43.5 1027.2 22.1  1.018 -99.9 -99.99 -9.99
2019/12/11 22:12 EST    1.23   0.88    5  285    9  32.0  43.5 1027.4 22.0  1.018 -99.9 -99.99 -9.99
2019/12/11 22:18 EST    1.11   0.79    4  280    8  31.6  43.5 1027.5 22.0  1.018 -99.9 -99.99 -9.99
2019/12/11 22:24 EST    1.00   0.74    4  280    8  31.5  43.5 1027.7 22.1  1.018 -99.9 -99.99 -9.99
2019/12/11 22:30 EST    0.89   0.60    5  283    8  31.5  43.5 1027.9 22.1  1.018 -99.9 -99.99 -9.99
2019/12/11 22:36 EST    0.78   0.46    6  283   10  31.5  43.5 1028.0 22.0  1.018 -99.9 -99.99 -9.99
2019/12/11 22:42 EST    0.68   0.33    5  285    8  31.3  43.5 1028.2 22.0  1.018 -99.9 -99.99 -9.99
2019/12/11 22:48 EST    0.58   0.29    4  283    8  31.3  43.3 1028.3 22.0  1.018 -99.9 -99.99 -9.99
2019/12/11 22:54 EST    0.48   0.21    5  284    8  31.1  43.5 1028.4 22.0  1.018 -99.9 -99.99 -9.99
2019/12/11 23:00 EST    0.39   0.07    4  287    7  31.1  43.5 1028.5 22.0  1.018 -99.9 -99.99 -9.99
2019/12/11 23:06 EST    0.30  -0.00    6  284    7  31.1  43.5 1028.6 22.0  1.018 -99.9 -99.99 -9.99
2019/12/11 23:12 EST    0.22  -0.10    5  284    7  30.9  43.5 1028.7 22.0  1.018 -99.9 -99.99 -9.99
2019/12/11 23:18 EST    0.14  -0.21    5  284    7  30.9  43.5 1028.8 22.0  1.018 -99.9 -99.99 -9.99
2019/12/11 23:24 EST    0.07  -0.30    4  285    6  30.7  43.5 1028.9 22.1  1.018 -99.9 -99.99 -9.99
2019/12/11 23:30 EST    0.00  -0.37    4  280    7  30.9  43.7 1028.9 22.1  1.018 -99.9 -99.99 -9.99
2019/12/11 23:36 EST   -0.06  -0.43    4  280    6  30.9  43.7 1029.1 22.1  1.018 -99.9 -99.99 -9.99
2019/12/11 23:42 EST   -0.12  -0.52    4  281    8  30.9  43.5 1029.3 22.1  1.018 -99.9 -99.99 -9.99
2019/12/11 23:48 EST   -0.17  -0.60    3  283    7  31.1  43.5 1029.4 22.1  1.018 -99.9 -99.99 -9.99
2019/12/11 23:54 EST   -0.21  -0.63    4  280    6  30.9  43.5 1029.3 22.1  1.018 -99.9 -99.99 -9.99
2019/12/12 00:00 EST   -0.25  -0.65    4  282    6  30.7  43.5 1029.4 22.1  1.018 -99.9 -99.99 -9.99
2019/12/12 00:06 EST   -0.28  -0.69    4  277    7  30.6  43.3 1029.5 22.1  1.018 -99.9 -99.99 -9.99
2019/12/12 00:12 EST   -0.30  -0.72    4  284    7  30.7  43.3 1029.7 22.1  1.018 -99.9 -99.99 -9.99
2019/12/12 00:18 EST   -0.32  -0.77    3  267    6  31.1  43.3 1029.8 22.0  1.018 -99.9 -99.99 -9.99
2019/12/12 00:24 EST   -0.33  -0.77    3  280    6  30.9  43.3 1029.9 22.1  1.018 -99.9 -99.99 -9.99
2019/12/12 00:30 EST   -0.34  -0.76    5  276    9  30.6  43.3 1030.0 22.1  1.018 -99.9 -99.99 -9.99
2019/12/12 00:36 EST   -0.34  -0.73    6  288    9  30.0  43.2 1030.3 22.0  1.018 -99.9 -99.99 -9.99
2019/12/12 00:42 EST   -0.33  -0.73    5  285    8  29.7  43.3 1030.5 22.0  1.018 -99.9 -99.99 -9.99
2019/12/12 00:48 EST   -0.32  -0.71    5  282    9  29.7  43.5 1030.7 22.0  1.018 -99.9 -99.99 -9.99
2019/12/12 00:54 EST   -0.30  -0.68    5  292    9  29.7  43.3 1030.9 22.1  1.018 -99.9 -99.99 -9.99
2019/12/12 01:00 EST   -0.28  -0.65    5  295    9  29.7  43.3 1031.1 22.1  1.018 -99.9 -99.99 -9.99
2019/12/12 01:06 EST   -0.25  -0.65    7  294   11  29.8  43.5 1031.3 22.0  1.018 -99.9 -99.99 -9.99
2019/12/12 01:12 EST   -0.22  -0.62    6  303   10  30.0  43.5 1031.6 21.9  1.018 -99.9 -99.99 -9.99
2019/12/12 01:18 EST   -0.18  -0.56   10  295   19  30.0  43.5 1031.6 22.0  1.018 -99.9 -99.99 -9.99
2019/12/12 01:24 EST   -0.14  -0.52    8  300   15  30.0  43.3 1031.8 22.0  1.018 -99.9 -99.99 -9.99
2019/12/12 01:30 EST   -0.10  -0.52    7  308   13  29.7  43.2 1031.8 22.0  1.018 -99.9 -99.99 -9.99
2019/12/12 01:36 EST   -0.05  -0.48    7  311   10  29.5  43.2 1032.0 22.0  1.018 -99.9 -99.99 -9.99
2019/12/12 01:42 EST    0.00  -0.47    7  312   13  29.3  43.2 1032.0 22.0  1.018 -99.9 -99.99 -9.99
2019/12/12 01:48 EST    0.06  -0.48    8  307   13  29.3  43.2 1032.1 22.0  1.018 -99.9 -99.99 -9.99
2019/12/12 01:54 EST    0.11  -0.44   10  301   16  29.1  43.2 1032.2 22.0  1.018 -99.9 -99.99 -9.99
2019/12/12 02:00 EST    0.17  -0.36    9  312   16  28.9  43.2 1032.3 22.0  1.018 -99.9 -99.99 -9.99
2019/12/12 02:06 EST    0.23  -0.34   10  316   14  28.8  43.2 1032.5 22.0  1.018 -99.9 -99.99 -9.99
2019/12/12 02:12 EST    0.30  -0.28   11  315   17  28.6  43.2 1032.7 22.0  1.018 -99.9 -99.99 -9.99
2019/12/12 02:18 EST    0.36  -0.19   10  306   15  28.4  43.2 1032.6 22.0  1.018 -99.9 -99.99 -9.99
2019/12/12 02:24 EST    0.43  -0.18    9  303   15  28.2  43.2 1032.4 21.9  1.018 -99.9 -99.99 -9.99
2019/12/12 02:30 EST    0.50  -0.14   11  309   16  28.2  43.0 1032.5 21.9  1.018 -99.9 -99.99 -9.99
2019/12/12 02:36 EST    0.57  -0.07    9  310   17  28.0  43.0 1032.6 21.9  1.018 -99.9 -99.99 -9.99
2019/12/12 02:42 EST    0.64  -0.01    9  306   13  27.7  43.0 1032.9 21.9  1.018 -99.9 -99.99 -9.99
2019/12/12 02:48 EST    0.71   0.05   11  310   15  27.9  43.0 1032.8 21.9  1.018 -99.9 -99.99 -9.99
2019/12/12 02:54 EST    0.79   0.08   11  313   15  27.7  43.2 1032.8 21.9  1.018 -99.9 -99.99 -9.99
2019/12/12 03:00 EST    0.86   0.14   11  317   18  27.5  43.0 1032.9 22.0  1.018 -99.9 -99.99 -9.99
2019/12/12 03:06 EST    0.94   0.17    9  313   18  27.1  43.0 1033.1 22.0  1.018 -99.9 -99.99 -9.99
2019/12/12 03:12 EST    1.01   0.21   11  314   13  27.1  43.0 1033.1 22.0  1.018 -99.9 -99.99 -9.99
2019/12/12 03:18 EST    1.09   0.31   10  309   16  27.0  43.0 1033.2 22.0  1.018 -99.9 -99.99 -9.99
2019/12/12 03:24 EST    1.17   0.40   13  314   18  27.1  43.0 1033.2 22.0  1.018 -99.9 -99.99 -9.99
2019/12/12 03:30 EST    1.26   0.46   11  313   16  27.0  43.0 1033.4 22.0  1.018 -99.9 -99.99 -9.99
2019/12/12 03:36 EST    1.34   0.55   10  312   18  26.8  43.0 1033.6 22.0  1.018 -99.9 -99.99 -9.99
2019/12/12 03:42 EST    1.42   0.62   11  311   17  26.8  43.0 1033.7 22.0  1.018 -99.9 -99.99 -9.99
2019/12/12 03:48 EST    1.51   0.65   12  314   18  26.6  43.0 1033.9 22.0  1.018 -99.9 -99.99 -9.99
2019/12/12 03:54 EST    1.60   0.76   11  309   16  26.6  43.0 1034.2 22.0  1.018 -99.9 -99.99 -9.99
2019/12/12 04:00 EST    1.68   0.87   12  307   18  26.6  43.0 1034.4 22.0  1.018 -99.9 -99.99 -9.99
2019/12/12 04:06 EST    1.77   0.96    9  308   14  26.6  43.0 1034.4 22.0  1.018 -99.9 -99.99 -9.99
2019/12/12 04:12 EST    1.87   1.08   11  306   17  26.4  42.8 1034.5 22.0  1.018 -99.9 -99.99 -9.99
2019/12/12 04:18 EST    1.96   1.18   11  309   16  26.4  43.0 1034.6 22.0  1.018 -99.9 -99.99 -9.99
2019/12/12 04:24 EST    2.05   1.28   13  307   18  26.2  43.0 1034.6 22.0  1.018 -99.9 -99.99 -9.99
2019/12/12 04:30 EST    2.15   1.38   14  305   22  26.1  43.0 1034.5 22.0  1.018 -99.9 -99.99 -9.99
2019/12/12 04:36 EST    2.24   1.47   12  308   18  26.1  42.8 1034.6 22.1  1.018 -99.9 -99.99 -9.99
2019/12/12 04:42 EST    2.34   1.58   11  308   17  26.1  42.8 1034.8 22.1  1.018 -99.9 -99.99 -9.99
2019/12/12 04:48 EST    2.44   1.68   10  311   15  25.9  42.8 1034.9 22.0  1.018 -99.9 -99.99 -9.99
2019/12/12 04:54 EST    2.54   1.80   10  315   17  26.1  42.8 1035.0 22.0  1.018 -99.9 -99.99 -9.99
2019/12/12 05:00 EST    2.63   1.89    8  311   16  25.7  42.8 1035.4 22.0  1.018 -99.9 -99.99 -9.99
2019/12/12 05:06 EST    2.73   1.98   11  314   14  25.9  42.8 1035.4 22.0  1.018 -99.9 -99.99 -9.99
2019/12/12 05:12 EST    2.83   2.10   11  313   18  25.7  42.6 1035.5 22.1  1.018 -99.9 -99.99 -9.99
2019/12/12 05:18 EST    2.93   2.18   10  305   16  25.7  42.6 1035.7 22.0  1.018 -99.9 -99.99 -9.99
2019/12/12 05:24 EST    3.02   2.28    9  316   14  25.5  42.6 1036.1 22.0  1.018 -99.9 -99.99 -9.99
2019/12/12 05:30 EST    3.12   2.43    7  312   13  25.5  42.6 1036.3 22.0  1.018 -99.9 -99.99 -9.99
2019/12/12 05:36 EST    3.21   2.56    7  306   12  25.3  42.8 1036.4 22.0  1.018 -99.9 -99.99 -9.99
2019/12/12 05:42 EST    3.31   2.58    9  308   14  25.3  42.6 1036.4 22.0  1.018 -99.9 -99.99 -9.99
2019/12/12 05:48 EST    3.39   2.63    9  312   13  25.5  42.8 1036.5 22.0  1.018 -99.9 -99.99 -9.99
2019/12/12 05:54 EST    3.48   2.75    8  311   14  25.3  42.8 1036.5 22.0  1.018 -99.9 -99.99 -9.99
2019/12/12 06:00 EST    3.57   2.83    8  313   13  25.5  42.8 1036.6 22.0  1.018 -99.9 -99.99 -9.99
2019/12/12 06:06 EST    3.65   2.90    7  309   10  25.2  42.8 1036.8 22.0  1.018 -99.9 -99.99 -9.99
2019/12/12 06:12 EST    3.72   2.99    6  312   11  25.2  42.8 1037.0 22.0  1.018 -99.9 -99.99 -9.99
2019/12/12 06:18 EST    3.79   3.11    5  306   10  25.2  42.8 1037.3 22.1  1.018 -99.9 -99.99 -9.99
2019/12/12 06:24 EST    3.86   3.18    6  303   10  25.2  42.8 1037.4 22.0  1.018 -99.9 -99.99 -9.99
2019/12/12 06:30 EST    3.92   3.25    5  320   11  25.3  42.8 1037.6 21.9  1.018 -99.9 -99.99 -9.99
2019/12/12 06:36 EST    3.98   3.35    5  317    8  25.2  42.6 1037.7 22.0  1.018 -99.9 -99.99 -9.99
2019/12/12 06:42 EST    4.03   3.41    5  324    8  24.8  42.6 1037.8 22.0  1.018 -99.9 -99.99 -9.99
2019/12/12 06:48 EST    4.08   3.43    5  322    9  24.8  42.6 1037.8 22.0  1.018 -99.9 -99.99 -9.99
2019/12/12 06:54 EST    4.12   3.49    4  306    7  24.8  42.6 1037.9 22.0  1.018 -99.9 -99.99 -9.99
2019/12/12 07:00 EST    4.16   3.59    4  333    7  24.8  42.6 1038.0 22.0  1.018 -99.9 -99.99 -9.99
2019/12/12 07:06 EST    4.19   3.66    2  323    6  24.6  42.6 1038.3 21.9  1.018 -99.9 -99.99 -9.99
2019/12/12 07:12 EST    4.21   3.64    4  312    7  25.0  42.4 1038.4 21.8  1.018 -99.9 -99.99 -9.99
2019/12/12 07:18 EST    4.22   3.68    4  299    8  25.2  42.4 1038.5 21.9  1.018 -99.9 -99.99 -9.99
2019/12/12 07:24 EST    4.23   3.72    4  310    7  25.0  42.6 1038.5 21.9  1.018 -99.9 -99.99 -9.99
2019/12/12 07:30 EST    4.23   3.73    3  293    7  25.3  42.6 1038.8 21.9  1.018 -99.9 -99.99 -9.99
2019/12/12 07:36 EST    4.23   3.75    3  302    6  25.9  42.4 1039.0 22.0  1.018 -99.9 -99.99 -9.99
2019/12/12 07:42 EST    4.22   3.76    3  308    6  26.1  42.4 1039.2 21.9  1.018 -99.9 -99.99 -9.99
2019/12/12 07:48 EST    4.20   3.72    3  306    5  26.1  42.6 1039.3 21.9  1.018 -99.9 -99.99 -9.99
2019/12/12 07:54 EST    4.18   3.69    4  304    6  25.7  42.6 1039.2 21.8  1.018 -99.9 -99.99 -9.99
2019/12/12 08:00 EST    4.15   3.66    4  302    6  25.9  42.6 1039.3 21.8  1.018 -99.9 -99.99 -9.99
2019/12/12 08:06 EST    4.11   3.65    4  315    8  26.1  42.6 1039.4 21.8  1.018 -99.9 -99.99 -9.99
2019/12/12 08:12 EST    4.07   3.60    4  325    8  26.2  42.6 1039.5 21.8  1.018 -99.9 -99.99 -9.99
2019/12/12 08:18 EST    4.02   3.61    4  317    6  26.4  42.6 1039.6 21.9  1.018 -99.9 -99.99 -9.99
2019/12/12 08:24 EST    3.96   3.56    3  320    6  27.0  42.6 1039.6 21.8  1.018 -99.9 -99.99 -9.99
2019/12/12 08:30 EST    3.90   3.54    4  324    6  26.6  42.6 1039.6 21.8  1.018 -99.9 -99.99 -9.99
2019/12/12 08:36 EST    3.83   3.47    5  324    7  26.4  42.6 1039.7 21.8  1.018 -99.9 -99.99 -9.99
2019/12/12 08:42 EST    3.76   3.45    2  356    6  27.5  42.6 1039.9 21.8  1.018 -99.9 -99.99 -9.99
2019/12/12 08:48 EST    3.68   3.37    1  322    4  29.1  42.6 1040.1 21.9  1.018 -99.9 -99.99 -9.99
2019/12/12 08:54 EST    3.60   3.30    2  310    4  29.1  42.6 1040.2 21.9  1.018 -99.9 -99.99 -9.99
2019/12/12 09:00 EST    3.52   3.20    2  322    3  28.4  42.6 1040.3 21.9  1.018 -99.9 -99.99 -9.99
2019/12/12 09:06 EST    3.43   3.11    4  327    6  27.7  42.6 1040.3 21.8  1.018 -99.9 -99.99 -9.99
2019/12/12 09:12 EST    3.33   3.01    3  304    4  28.0  42.6 1040.5 21.9  1.018 -99.9 -99.99 -9.99
2019/12/12 09:18 EST    3.23   2.89    4  320    6  27.7  42.6 1040.5 21.9  1.018 -99.9 -99.99 -9.99
2019/12/12 09:24 EST    3.13   2.80    4  306    8  28.0  42.6 1040.6 21.9  1.018 -99.9 -99.99 -9.99
2019/12/12 09:30 EST    3.02   2.72    5  312    8  27.9  42.6 1040.7 21.9  1.018 -99.9 -99.99 -9.99
2019/12/12 09:36 EST    2.92   2.65    4  324    7  28.2  42.6 1040.7 21.9  1.018 -99.9 -99.99 -9.99
2019/12/12 09:42 EST    2.81   2.55    4  316    5  28.4  42.6 1040.7 21.9  1.018 -99.9 -99.99 -9.99
2019/12/12 09:48 EST    2.69   2.45    6  316    9  28.4  42.4 1040.7 22.0  1.018 -99.9 -99.99 -9.99
2019/12/12 09:54 EST    2.58   2.32    5  345    8  28.4  42.6 1040.8 21.9  1.018 -99.9 -99.99 -9.99
2019/12/12 10:00 EST    2.46   2.17    8  351   10  28.4  42.6 1040.7 22.0  1.018 -99.9 -99.99 -9.99
2019/12/12 10:06 EST    2.34   2.04   10  345   14  28.6  42.6 1040.7 22.0  1.018 -99.9 -99.99 -9.99
2019/12/12 10:12 EST    2.23   1.91    8  337   11  28.6  42.8 1040.6 21.9  1.018 -99.9 -99.99 -9.99
2019/12/12 10:18 EST    2.11   1.78   11  348   14  28.2  42.8 1040.4 22.0  1.018 -99.9 -99.99 -9.99
2019/12/12 10:24 EST    1.99   1.62   11  341   16  28.8  42.8 1040.4 21.9  1.018 -99.9 -99.99 -9.99
2019/12/12 10:30 EST    1.87   1.50    8  328   12  28.9  43.0 1040.3 21.9  1.018 -99.9 -99.99 -9.99
2019/12/12 10:36 EST    1.75   1.37    8  320   11  28.8  43.0 1040.3 22.1  1.018 -99.9 -99.99 -9.99
2019/12/12 10:42 EST    1.63   1.24    9  348   12  28.9  43.0 1040.3 22.1  1.018 -99.9 -99.99 -9.99
2019/12/12 10:48 EST    1.52   1.13    7  337    9  28.8  43.0 1040.4 22.1  1.018 -99.9 -99.99 -9.99
2019/12/12 10:54 EST    1.40   1.02    7  321    9  29.1  43.2 1040.3 22.0  1.018 -99.9 -99.99 -9.99
2019/12/12 11:00 EST    1.29   0.89    7  324   10  29.5  43.2 1040.4 22.1  1.018 -99.9 -99.99 -9.99
2019/12/12 11:06 EST    1.18   0.73    7  347   10  29.3  43.0 1040.3 22.1  1.018 -99.9 -99.99 -9.99
2019/12/12 11:12 EST    1.07   0.64    7  322   10  29.3  43.2 1040.2 22.1  1.018 -99.9 -99.99 -9.99
2019/12/12 11:18 EST    0.96   0.53    6  342    8  29.5  43.2 1040.2 22.1  1.018 -99.9 -99.99 -9.99
2019/12/12 11:24 EST    0.86   0.39    6  340   15  29.7  43.0 1040.1 22.1  1.018 -99.9 -99.99 -9.99
2019/12/12 11:30 EST    0.76   0.28    8  344   12  29.5  42.8 1040.1 22.1  1.018 -99.9 -99.99 -9.99
2019/12/12 11:36 EST    0.67   0.23    8  340   12  29.8  42.8 1040.1 22.1  1.018 -99.9 -99.99 -9.99
2019/12/12 11:42 EST    0.58   0.15   10  351   12  29.5  42.8 1040.0 22.1  1.018 -99.9 -99.99 -9.99
2019/12/12 11:48 EST    0.49   0.03   11  350   13  29.5  42.8 1040.0 22.1  1.018 -99.9 -99.99 -9.99
2019/12/12 11:54 EST    0.41  -0.07   10  357   12  29.5  42.8 1039.9 22.1  1.018 -99.9 -99.99 -9.99
2019/12/12 12:00 EST    0.33  -0.11   10  358   12  29.8  42.8 1039.8 22.0  1.018 -99.9 -99.99 -9.99
2019/12/12 12:06 EST    0.26  -0.18    9  351   13  30.0  42.8 1039.8 22.1  1.018 -99.9 -99.99 -9.99
2019/12/12 12:12 EST    0.20  -0.23    8  357   12  30.0  42.8 1039.7 22.0  1.018 -99.9 -99.99 -9.99
2019/12/12 12:18 EST    0.13  -0.30   10  348   12  30.0  42.8 1039.8 21.9  1.018 -99.9 -99.99 -9.99
2019/12/12 12:24 EST    0.08  -0.34    8    1   10  30.0  42.8 1039.7 21.9  1.018 -99.9 -99.99 -9.99
2019/12/12 12:30 EST    0.03  -0.38    7  338   10  30.6  43.0 1039.7 21.9  1.018 -99.9 -99.99 -9.99
2019/12/12 12:36 EST   -0.02  -0.44    9  345   11  30.4  42.8 1039.7 22.0  1.018 -99.9 -99.99 -9.99
2019/12/12 12:42 EST   -0.06  -0.47    8  360   11  30.2  43.0 1039.6 22.0  1.018 -99.9 -99.99 -9.99
2019/12/12 12:48 EST   -0.10  -0.45    6  354    9  30.6  42.8 1039.6 21.9  1.018 -99.9 -99.99 -9.99
2019/12/12 12:54 EST   -0.13  -0.43    8    5   10  30.4  42.8 1039.6 22.0  1.018 -99.9 -99.99 -9.99
2019/12/12 13:00 EST   -0.15  -0.44    7  358   10  30.7  42.8 1039.5 22.0  1.018 -99.9 -99.99 -9.99
2019/12/12 13:06 EST   -0.17  -0.40    8   17   10  30.7  42.8 1039.4 22.0  1.018 -99.9 -99.99 -9.99
2019/12/12 13:12 EST   -0.19  -0.41    6    8    9  30.9  42.8 1039.3 22.0  1.018 -99.9 -99.99 -9.99
2019/12/12 13:18 EST   -0.20  -0.44    6    4    9  30.9  42.8 1039.3 22.0  1.018 -99.9 -99.99 -9.99
2019/12/12 13:24 EST   -0.20  -0.44    6   13   10  30.7  42.8 1039.4 22.0  1.018 -99.9 -99.99 -9.99
2019/12/12 13:30 EST   -0.21  -0.42    5  355    8  31.1  42.8 1039.3 22.0  1.018 -99.9 -99.99 -9.99
2019/12/12 13:36 EST   -0.20  -0.41    5    1    7  31.3  42.8 1039.2 22.0  1.018 -99.9 -99.99 -9.99
2019/12/12 13:42 EST   -0.20  -0.42    6   23    8  30.7  42.8 1039.2 22.0  1.018 -99.9 -99.99 -9.99
2019/12/12 13:48 EST   -0.19  -0.42    6   23    8  31.1  42.8 1039.1 22.0  1.018 -99.9 -99.99 -9.99
2019/12/12 13:54 EST   -0.17  -0.40    5   15    8  31.3  42.8 1039.2 22.0  1.018 -99.9 -99.99 -9.99
2019/12/12 14:00 EST   -0.16  -0.39    4  353    5  31.6  42.8 1039.3 21.9  1.018 -99.9 -99.99 -9.99
2019/12/12 14:06 EST   -0.14  -0.35    5    4    7  31.5  42.8 1039.3 21.9  1.018 -99.9 -99.99 -9.99
2019/12/12 14:12 EST   -0.11  -0.32    5    5    6  31.5  42.8 1039.3 21.9  1.018 -99.9 -99.99 -9.99
2019/12/12 14:18 EST   -0.09  -0.31    6   12    8  31.5  42.8 1039.3 21.8  1.018 -99.9 -99.99 -9.99
2019/12/12 14:24 EST   -0.06  -0.26    5   11    7  31.5  42.8 1039.3 21.8  1.018 -99.9 -99.99 -9.99
2019/12/12 14:30 EST   -0.03  -0.19    3    2    6  31.6  42.8 1039.4 21.9  1.018 -99.9 -99.99 -9.99
2019/12/12 14:36 EST    0.01  -0.17    2    3    4  32.0  42.8 1039.5 22.0  1.018 -99.9 -99.99 -9.99
2019/12/12 14:42 EST    0.04  -0.14    1   71    2  32.5  42.8 1039.5 22.0  1.018 -99.9 -99.99 -9.99
2019/12/12 14:48 EST    0.08  -0.10    2  333    4  32.5  42.8 1039.5 22.0  1.018 -99.9 -99.99 -9.99
2019/12/12 14:54 EST    0.12  -0.07    3  354    4  32.4  42.8 1039.5 22.0  1.018 -99.9 -99.99 -9.99
2019/12/12 15:00 EST    0.17  -0.03    2   25    4  32.7  42.8 1039.6 22.0  1.018 -99.9 -99.99 -9.99
2019/12/12 15:06 EST    0.21   0.03    2    4    4  32.7  42.8 1039.6 22.0  1.018 -99.9 -99.99 -9.99
2019/12/12 15:12 EST    0.26   0.09    3   14    3  32.5  42.8 1039.5 22.0  1.018 -99.9 -99.99 -9.99
2019/12/12 15:18 EST    0.31   0.10    3   26    5  32.7  42.8 1039.5 22.0  1.018 -99.9 -99.99 -9.99
2019/12/12 15:24 EST    0.36   0.14    3   56    4  32.5  42.8 1039.5 22.0  1.018 -99.9 -99.99 -9.99
2019/12/12 15:30 EST    0.42   0.21    3  351    4  32.7  42.8 1039.6 22.0  1.018 -99.9 -99.99 -9.99
2019/12/12 15:36 EST    0.47   0.27    2  337    3  32.5  42.8 1039.7 22.0  1.018 -99.9 -99.99 -9.99
2019/12/12 15:42 EST    0.53   0.34    2  340    4  32.4  42.8 1039.7 22.0  1.018 -99.9 -99.99 -9.99
2019/12/12 15:48 EST    0.59   0.39    3  341    4  32.2  42.8 1039.7 22.0  1.018 -99.9 -99.99 -9.99
2019/12/12 15:54 EST    0.66   0.44    3   14    4  32.2  42.8 1039.7 22.0  1.018 -99.9 -99.99 -9.99
2019/12/12 16:00 EST    0.72   0.49    2   13    4  32.4  42.8 1039.7 22.0  1.018 -99.9 -99.99 -9.99
2019/12/12 16:06 EST    0.79   0.56    3   13    3  32.0  42.8 1039.7 22.0  1.018 -99.9 -99.99 -9.99
2019/12/12 16:12 EST    0.87   0.63    3   11    4  31.8  42.8 1039.7 22.0  1.018 -99.9 -99.99 -9.99
2019/12/12 16:18 EST    0.94   0.72    3    2    4  31.8  42.8 1039.7 22.0  1.018 -99.9 -99.99 -9.99
2019/12/12 16:24 EST    1.02   0.82    2  343    3  31.6  42.8 1039.8 22.0  1.018 -99.9 -99.99 -9.99
2019/12/12 16:30 EST    1.10   0.88    2    5    3  31.6  42.8 1039.9 22.0  1.018 -99.9 -99.99 -9.99
2019/12/12 16:36 EST    1.18   0.95    1   17    2  31.6  42.8 1039.9 22.0  1.018 -99.9 -99.99 -9.99
2019/12/12 16:42 EST    1.27   1.04    1  346    1  31.6  42.8 1039.9 21.9  1.018 -99.9 -99.99 -9.99
2019/12/12 16:48 EST    1.36   1.14    2  354    2  31.6  42.8 1039.8 22.0  1.018 -99.9 -99.99 -9.99
2019/12/12 16:54 EST    1.45   1.25    1  340    2  31.6  42.8 1040.0 22.0  1.018 -99.9 -99.99 -9.99
2019/12/12 17:00 EST    1.54   1.35    1   12    2  31.8  42.6 1040.0 22.1  1.018 -99.9 -99.99 -9.99
2019/12/12 17:06 EST    1.64   1.45    2  356    2  31.6  42.8 1040.0 22.0  1.018 -99.9 -99.99 -9.99
2019/12/12 17:12 EST    1.74   1.57    2  332    3  31.6  42.6 1039.9 22.0  1.018 -99.9 -99.99 -9.99
2019/12/12 17:18 EST    1.84   1.66    2  335    3  31.6  42.6 1040.2 22.1  1.018 -99.9 -99.99 -9.99
2019/12/12 17:24 EST    1.94   1.77    1  343    2  31.6  42.6 1040.1 22.0  1.018 -99.9 -99.99 -9.99
2019/12/12 17:30 EST    2.04   1.89    1  341    1  31.6  42.6 1040.2 22.1  1.018 -99.9 -99.99 -9.99
2019/12/12 17:36 EST    2.14   1.99    1  312    1  31.6  42.6 1040.2 22.1  1.018 -99.9 -99.99 -9.99
2019/12/12 17:42 EST    2.24   2.08    2  335    2  31.6  42.8 1040.3 22.0  1.018 -99.9 -99.99 -9.99
2019/12/12 17:48 EST    2.34   2.21    1  331    2  31.6  42.8 1040.5 22.0  1.018 -99.9 -99.99 -9.99
2019/12/12 17:54 EST    2.44   2.32    2  313    2  31.5  42.8 1040.6 22.0  1.018 -99.9 -99.99 -9.99
2019/12/12 18:00 EST    2.55   2.41    3  312    3  31.3  42.8 1040.6 22.0  1.018 -99.9 -99.99 -9.99
2019/12/12 18:06 EST    2.64   2.52    1  296    3  31.3  42.6 1040.7 22.1  1.018 -99.9 -99.99 -9.99
2019/12/12 18:12 EST    2.74   2.63    1  274    2  31.6  42.8 1040.7 22.0  1.018 -99.9 -99.99 -9.99
2019/12/12 18:18 EST    2.84   2.74    1  278    3  31.6  42.6 1040.7 22.1  1.018 -99.9 -99.99 -9.99
2019/12/12 18:24 EST    2.93   2.85    1  206    2  31.6  42.6 1040.7 22.1  1.018 -99.9 -99.99 -9.99
2019/12/12 18:30 EST    3.02   2.93    4  155    5  32.2  42.6 1040.6 22.1  1.018 -99.9 -99.99 -9.99
2019/12/12 18:36 EST    3.10   3.05    3  295    4  31.5  42.6 1040.5 22.1  1.018 -99.9 -99.99 -9.99
2019/12/12 18:42 EST    3.18   3.14    3  276    4  30.9  42.6 1040.5 22.0  1.018 -99.9 -99.99 -9.99
2019/12/12 18:48 EST    3.26   3.20    1  313    3  30.6  42.6 1040.6 22.0  1.018 -99.9 -99.99 -9.99
2019/12/12 18:54 EST    3.33   3.27    1  269    1  30.6  42.6 1040.6 22.0  1.018 -99.9 -99.99 -9.99
2019/12/12 19:00 EST    3.40   3.36    1  296    2  30.6  42.6 1040.6 22.0  1.018 -99.9 -99.99 -9.99
2019/12/12 19:06 EST    3.46   3.41    2  322    3  30.4  42.6 1040.6 22.1  1.018 -99.9 -99.99 -9.99
2019/12/12 19:12 EST    3.51   3.43    2  329    3  30.4  42.6 1040.6 22.1  1.018 -99.9 -99.99 -9.99
2019/12/12 19:18 EST    3.56   3.50    0  311    3  30.2  42.6 1040.6 22.1  1.018 -99.9 -99.99 -9.99
2019/12/12 19:24 EST    3.60   3.56    1  326    2  30.2  42.6 1040.6 22.0  1.018 -99.9 -99.99 -9.99
2019/12/12 19:30 EST    3.63   3.57    2  329    3  29.8  42.6 1040.5 22.0  1.018 -99.9 -99.99 -9.99
2019/12/12 19:36 EST    3.66   3.58    2  333    3  29.5  42.6 1040.6 22.0  1.018 -99.9 -99.99 -9.99
2019/12/12 19:42 EST    3.68   3.60    3  336    4  29.3  42.6 1040.5 22.0  1.018 -99.9 -99.99 -9.99
2019/12/12 19:48 EST    3.69   3.59    2  313    4  29.7  42.6 1040.4 22.0  1.018 -99.9 -99.99 -9.99
2019/12/12 19:54 EST    3.70   3.54    2  287    3  29.7  42.6 1040.7 21.9  1.018 -99.9 -99.99 -9.99
2019/12/12 20:00 EST    3.69   3.53    1  303    2  29.8  42.6 1040.6 22.0  1.018 -99.9 -99.99 -9.99
2019/12/12 20:06 EST    3.68   3.53    1  275    2  29.8  42.6 1040.4 22.0  1.018 -99.9 -99.99 -9.99
2019/12/12 20:12 EST    3.67   3.50    3  281    4  29.8  42.6 1040.2 22.0  1.018 -99.9 -99.99 -9.99
2019/12/12 20:18 EST    3.64   3.46    3  257    4  30.0  42.6 1040.1 22.0  1.018 -99.9 -99.99 -9.99
2019/12/12 20:24 EST    3.61   3.46    2  277    3  29.8  42.4 1040.1 22.0  1.018 -99.9 -99.99 -9.99
2019/12/12 20:30 EST    3.57   3.42    2  282    3  29.8  42.4 1040.2 22.0  1.018 -99.9 -99.99 -9.99
2019/12/12 20:36 EST    3.53   3.35    3  285    3  29.7  42.4 1040.1 22.0  1.018 -99.9 -99.99 -9.99
2019/12/12 20:42 EST    3.47   3.32    1  266    3  30.0  42.4 1040.0 21.9  1.018 -99.9 -99.99 -9.99
2019/12/12 20:48 EST    3.41   3.27    2  308    3  29.8  42.4 1040.0 21.9  1.018 -99.9 -99.99 -9.99
2019/12/12 20:54 EST    3.35   3.19    2  308    3  29.7  42.4 1040.0 21.8  1.018 -99.9 -99.99 -9.99
2019/12/12 21:00 EST    3.28   3.11    1  318    3  29.5  42.4 1039.8 21.9  1.018 -99.9 -99.99 -9.99
2019/12/12 21:06 EST    3.20   3.05    1  350    2  29.8  42.3 1039.9 22.0  1.018 -99.9 -99.99 -9.99
2019/12/12 21:12 EST    3.12   2.95    3  118    6  31.8  42.4 1039.9 21.9  1.018 -99.9 -99.99 -9.99
2019/12/12 21:18 EST    3.03   2.82    3  133    6  32.2  42.4 1039.9 21.9  1.018 -99.9 -99.99 -9.99
2019/12/12 21:24 EST    2.94   2.71    4  145    5  32.2  42.4 1040.0 21.9  1.018 -99.9 -99.99 -9.99
2019/12/12 21:30 EST    2.84   2.64    4  131    5  32.2  42.4 1040.1 22.0  1.018 -99.9 -99.99 -9.99
2019/12/12 21:36 EST    2.74   2.49    3  166    5  32.4  42.6 1040.0 21.9  1.018 -99.9 -99.99 -9.99
2019/12/12 21:42 EST    2.63   2.39    1  303    3  30.4  42.6 1040.0 21.9  1.018 -99.9 -99.99 -9.99
2019/12/12 21:48 EST    2.52   2.29    1  326    2  30.0  42.6 1040.0 21.8  1.018 -99.9 -99.99 -9.99
2019/12/12 21:54 EST    2.41   2.19    1  327    2  29.7  42.6 1039.9 21.8  1.018 -99.9 -99.99 -9.99
2019/12/12 22:00 EST    2.29   2.06    1  239    2  30.4  42.6 1039.9 21.8  1.018 -99.9 -99.99 -9.99
2019/12/12 22:06 EST    2.18   1.93    2  245    3  30.6  42.6 1039.8 21.8  1.018 -99.9 -99.99 -9.99
2019/12/12 22:12 EST    2.06   1.80    3  231    4  30.6  42.6 1039.8 21.9  1.018 -99.9 -99.99 -9.99
2019/12/12 22:18 EST    1.94   1.67    2  213    3  31.5  42.6 1039.8 21.8  1.018 -99.9 -99.99 -9.99
2019/12/12 22:24 EST    1.82   1.56    3  226    5  31.1  42.6 1039.7 21.8  1.018 -99.9 -99.99 -9.99
2019/12/12 22:30 EST    1.70   1.46    3  228    5  31.5  42.6 1039.6 21.8  1.018 -99.9 -99.99 -9.99
2019/12/12 22:36 EST    1.57   1.34    3  187    4  32.0  42.6 1039.5 21.9  1.018 -99.9 -99.99 -9.99
2019/12/12 22:42 EST    1.45   1.21    3  150    5  32.5  42.6 1039.4 21.9  1.018 -99.9 -99.99 -9.99
2019/12/12 22:48 EST    1.33   1.09    3  142    5  32.5  42.6 1039.3 21.9  1.018 -99.9 -99.99 -9.99
2019/12/12 22:54 EST    1.21   0.96    4  152    6  32.5  42.8 1039.3 21.9  1.018 -99.9 -99.99 -9.99
2019/12/12 23:00 EST    1.09   0.83    3  205    5  32.2  42.6 1039.3 21.9  1.018 -99.9 -99.99 -9.99
2019/12/12 23:06 EST    0.98   0.70    3  170    4  32.4  42.8 1039.2 21.8  1.018 -99.9 -99.99 -9.99
2019/12/12 23:12 EST    0.86   0.59    2  181    3  32.2  42.6 1039.1 21.8  1.018 -99.9 -99.99 -9.99
2019/12/12 23:18 EST    0.75   0.49    5  120    6  32.5  42.6 1039.0 21.8  1.018 -99.9 -99.99 -9.99
2019/12/12 23:24 EST    0.65   0.35    4  131    6  32.5  42.6 1039.0 21.9  1.018 -99.9 -99.99 -9.99
2019/12/12 23:30 EST    0.54   0.26    2  127    5  32.7  42.6 1039.0 21.9  1.018 -99.9 -99.99 -9.99
2019/12/12 23:36 EST    0.44   0.18    2  304    3  30.0  42.6 1039.0 21.8  1.018 -99.9 -99.99 -9.99
2019/12/12 23:42 EST    0.35   0.10    1  328    3  28.8  42.6 1038.9 21.8  1.018 -99.9 -99.99 -9.99
2019/12/12 23:48 EST    0.26   0.02    3  322    3  28.6  42.6 1038.8 21.8  1.018 -99.9 -99.99 -9.99
2019/12/12 23:54 EST    0.17  -0.04    3  334    4  28.6  42.8 1038.8 21.8  1.018 -99.9 -99.99 -9.99
2019/12/13 00:00 EST    0.09  -0.08    3  322    3  29.1  42.8 1038.5 21.8  1.018 -99.9 -99.99 -9.99
2019/12/13 00:06 EST    0.01  -0.15    3  355    3  28.9  42.8 1038.3 22.0  1.018 -99.9 -99.99 -9.99
2019/12/13 00:12 EST   -0.06  -0.23    3  326    3  28.4  42.8 1038.2 22.0  1.018 -99.9 -99.99 -9.99
2019/12/13 00:18 EST   -0.12  -0.29    3  330    4  28.4  42.6 1038.2 22.1  1.018 -99.9 -99.99 -9.99
2019/12/13 00:24 EST   -0.18  -0.35    3  329    4  28.0  42.6 1038.2 22.0  1.018 -99.9 -99.99 -9.99
2019/12/13 00:30 EST   -0.23  -0.41    3  323    4  28.0  42.3 1038.2 22.0  1.018 -99.9 -99.99 -9.99
2019/12/13 00:36 EST   -0.27  -0.46    4  319    4  27.7  42.6 1038.2 21.9  1.018 -99.9 -99.99 -9.99
2019/12/13 00:42 EST   -0.31  -0.49    4  326    5  27.7  42.6 1038.3 22.0  1.018 -99.9 -99.99 -9.99
2019/12/13 00:48 EST   -0.34  -0.48    4  327    5  27.1  42.4 1038.1 22.0  1.018 -99.9 -99.99 -9.99
2019/12/13 00:54 EST   -0.37  -0.50    4  334    6  27.1  42.4 1037.9 21.9  1.018 -99.9 -99.99 -9.99
2019/12/13 01:00 EST   -0.39  -0.52    4  328    5  27.0  42.6 1038.0 22.0  1.018 -99.9 -99.99 -9.99
2019/12/13 01:06 EST   -0.40  -0.51    3  314    5  27.0  42.6 1037.9 21.8  1.018 -99.9 -99.99 -9.99
2019/12/13 01:12 EST   -0.40  -0.48    4  336    5  27.3  42.4 1037.8 21.9  1.018 -99.9 -99.99 -9.99
2019/12/13 01:18 EST   -0.40  -0.45    4  325    5  27.1  42.4 1037.8 21.9  1.018 -99.9 -99.99 -9.99
2019/12/13 01:24 EST   -0.40  -0.41    4  324    4  27.3  42.4 1037.8 21.8  1.018 -99.9 -99.99 -9.99
2019/12/13 01:30 EST   -0.38  -0.38    4  330    4  27.3  42.3 1037.8 21.8  1.018 -99.9 -99.99 -9.99
2019/12/13 01:36 EST   -0.37  -0.34    4  322    6  27.3  42.3 1037.9 21.8  1.018 -99.9 -99.99 -9.99
2019/12/13 01:42 EST   -0.34  -0.33    4  322    5  27.1  42.3 1038.0 21.9  1.018 -99.9 -99.99 -9.99
2019/12/13 01:48 EST   -0.32  -0.31    4  327    5  27.3  42.3 1038.0 21.9  1.018 -99.9 -99.99 -9.99
2019/12/13 01:54 EST   -0.28  -0.27    4  325    5  27.5  42.3 1038.1 21.9  1.018 -99.9 -99.99 -9.99
2019/12/13 02:00 EST   -0.24  -0.22    4  320    5  27.3  42.3 1038.0 21.8  1.018 -99.9 -99.99 -9.99
2019/12/13 02:06 EST   -0.20  -0.20    4  330    5  27.5  42.3 1037.9 21.8  1.018 -99.9 -99.99 -9.99
2019/12/13 02:12 EST   -0.16  -0.18    4  325    5  27.3  42.1 1037.9 21.8  1.018 -99.9 -99.99 -9.99
2019/12/13 02:18 EST   -0.11  -0.14    4  329    5  27.0  42.1 1037.9 21.8  1.018 -99.9 -99.99 -9.99
2019/12/13 02:24 EST   -0.05  -0.08    4  326    6  26.8  42.1 1037.7 21.8  1.018 -99.9 -99.99 -9.99
2019/12/13 02:30 EST    0.00  -0.03    5  335    6  26.8  42.1 1037.7 21.8  1.018 -99.9 -99.99 -9.99
2019/12/13 02:36 EST    0.06   0.05    4  328    5  26.6  42.1 1037.7 21.8  1.018 -99.9 -99.99 -9.99
2019/12/13 02:42 EST    0.12   0.12    4  335    6  26.6  42.1 1037.6 21.8  1.018 -99.9 -99.99 -9.99
2019/12/13 02:48 EST    0.19   0.18    3  332    6  26.6  42.1 1037.4 21.8  1.018 -99.9 -99.99 -9.99
2019/12/13 02:54 EST    0.25   0.24    3  329    4  26.4  42.1 1037.3 21.8  1.018 -99.9 -99.99 -9.99
2019/12/13 03:00 EST    0.32   0.33    3  331    5  26.2  42.1 1037.2 21.9  1.018 -99.9 -99.99 -9.99
2019/12/13 03:06 EST    0.39   0.38    4  336    5  26.2  42.1 1037.3 21.8  1.018 -99.9 -99.99 -9.99
2019/12/13 03:12 EST    0.46   0.44    4  315    5  26.2  42.1 1037.2 21.9  1.018 -99.9 -99.99 -9.99
2019/12/13 03:18 EST    0.53   0.50    4  324    5  26.6  42.1 1037.1 21.9  1.018 -99.9 -99.99 -9.99
2019/12/13 03:24 EST    0.61   0.57    4  318    6  27.0  42.1 1037.0 21.9  1.018 -99.9 -99.99 -9.99
2019/12/13 03:30 EST    0.68   0.66    4  320    6  26.6  42.1 1036.9 21.9  1.018 -99.9 -99.99 -9.99
2019/12/13 03:36 EST    0.76   0.72    5  320    5  26.4  42.1 1036.8 21.9  1.018 -99.9 -99.99 -9.99
2019/12/13 03:42 EST    0.84   0.79    4  318    5  26.6  42.1 1036.7 21.8  1.018 -99.9 -99.99 -9.99
2019/12/13 03:48 EST    0.91   0.85    4  322    5  26.6  42.1 1036.6 21.8  1.018 -99.9 -99.99 -9.99
2019/12/13 03:54 EST    0.99   0.90    4  330    5  26.6  42.1 1036.5 21.8  1.018 -99.9 -99.99 -9.99
2019/12/13 04:00 EST    1.07   0.97    4  333    6  26.8  41.9 1036.4 21.9  1.018 -99.9 -99.99 -9.99
2019/12/13 04:06 EST    1.15   1.04    4  331    5  26.6  41.9 1036.3 21.7  1.018 -99.9 -99.99 -9.99
2019/12/13 04:12 EST    1.24   1.14    4  325    5  26.8  41.7 1036.2 21.7  1.018 -99.9 -99.99 -9.99
2019/12/13 04:18 EST    1.32   1.24    4  326    5  26.8  41.9 1036.1 21.6  1.018 -99.9 -99.99 -9.99
2019/12/13 04:24 EST    1.41   1.35    4  334    5  26.6  41.9 1035.9 21.6  1.018 -99.9 -99.99 -9.99
2019/12/13 04:30 EST    1.49   1.42    5  340    6  26.6  41.5 1035.5 21.5  1.018 -99.9 -99.99 -9.99
2019/12/13 04:36 EST    1.58   1.51    5  349    6  26.2  41.5 1035.3 21.5  1.018 -99.9 -99.99 -9.99
2019/12/13 04:42 EST    1.67   1.60    5  345    5  26.6  41.7 1035.1 21.5  1.018 -99.9 -99.99 -9.99
2019/12/13 04:48 EST    1.76   1.66    6  342    7  27.0  41.5 1035.0 21.7  1.018 -99.9 -99.99 -9.99
2019/12/13 04:54 EST    1.85   1.74    5  338    6  27.7  41.4 1035.0 21.6  1.018 -99.9 -99.99 -9.99
2019/12/13 05:00 EST    1.94   1.82    5  334    6  27.9  41.5 1035.0 21.7  1.018 -99.9 -99.99 -9.99
2019/12/13 05:06 EST    2.04   1.87    5  321    6  28.2  41.5 1035.1 21.7  1.018 -99.9 -99.99 -9.99
2019/12/13 05:12 EST    2.13   1.99    4  303    6  28.4  41.5 1035.2 21.6  1.018 -99.9 -99.99 -9.99
2019/12/13 05:18 EST    2.23   2.11    5  315    6  28.8  41.5 1035.1 21.6  1.018 -99.9 -99.99 -9.99
2019/12/13 05:24 EST    2.33   2.21    5  308    6  28.8  41.7 1035.1 21.6  1.018 -99.9 -99.99 -9.99
2019/12/13 05:30 EST    2.43   2.30    5  313    6  28.6  41.7 1034.9 21.6  1.018 -99.9 -99.99 -9.99
2019/12/13 05:36 EST    2.53   2.38    4  312    6  28.4  41.9 1034.9 21.5  1.018 -99.9 -99.99 -9.99
2019/12/13 05:42 EST    2.63   2.52    4  324    5  28.4  41.9 1034.8 21.6  1.018 -99.9 -99.99 -9.99
2019/12/13 05:48 EST    2.73   2.60    4  323    4  28.8  41.5 1034.8 21.6  1.018 -99.9 -99.99 -9.99
2019/12/13 05:54 EST    2.83   2.67    5  322    6  28.4  41.9 1034.6 21.6  1.018 -99.9 -99.99 -9.99
2019/12/13 06:00 EST    2.92   2.78    4  327    5  28.4  41.7 1034.7 21.6  1.018 -99.9 -99.99 -9.99
2019/12/13 06:06 EST    3.02   2.86    5  329    6  27.9  41.9 1034.7 21.7  1.018 -99.9 -99.99 -9.99
2019/12/13 06:12 EST    3.12   2.94    4  326    5  27.9  42.1 1034.7 21.7  1.018 -99.9 -99.99 -9.99
2019/12/13 06:18 EST    3.22   3.02    4  323    5  28.4  41.9 1034.6 21.7  1.018 -99.9 -99.99 -9.99
2019/12/13 06:24 EST    3.31   3.16    4  326    4  28.4  41.5 1034.5 21.7  1.018 -99.9 -99.99 -9.99
2019/12/13 06:30 EST    3.40   3.27    3  330    4  28.2  41.7 1034.4 21.6  1.018 -99.9 -99.99 -9.99
2019/12/13 06:36 EST    3.49   3.34    3  331    4  28.6  41.7 1034.3 21.6  1.018 -99.9 -99.99 -9.99
2019/12/13 06:42 EST    3.58   3.41    3  326    4  28.8  41.5 1034.1 21.6  1.018 -99.9 -99.99 -9.99
2019/12/13 06:48 EST    3.67   3.51    4  324    4  28.8  41.5 1034.1 21.5  1.018 -99.9 -99.99 -9.99
2019/12/13 06:54 EST    3.75   3.59    4  327    4  28.8  41.5 1034.0 21.4  1.018 -99.9 -99.99 -9.99
2019/12/13 07:00 EST    3.82   3.68    4  327    4  28.6  41.5 1034.0 21.5  1.018 -99.9 -99.99 -9.99
2019/12/13 07:06 EST    3.89   3.72    4  325    5  28.8  41.5 1033.9 21.5  1.018 -99.9 -99.99 -9.99
2019/12/13 07:12 EST    3.96   3.80    3  325    4  29.1  41.5 1033.9 21.5  1.018 -99.9 -99.99 -9.99
2019/12/13 07:18 EST    4.02   3.87    4  329    5  29.3  41.7 1033.9 21.6  1.018 -99.9 -99.99 -9.99
2019/12/13 07:24 EST    4.08   3.95    4  329    4  29.3  41.7 1033.8 21.5  1.018 -99.9 -99.99 -9.99
2019/12/13 07:30 EST    4.13   4.04    4  331    5  29.3  41.7 1033.7 21.6  1.018 -99.9 -99.99 -9.99
2019/12/13 07:36 EST    4.17   4.13    3  328    4  29.7  41.7 1033.7 21.6  1.018 -99.9 -99.99 -9.99
2019/12/13 07:42 EST    4.21   4.17    3  326    4  29.5  41.9 1033.6 21.6  1.018 -99.9 -99.99 -9.99
2019/12/13 07:48 EST    4.24   4.21    3  322    4  29.8  41.7 1033.6 21.7  1.018 -99.9 -99.99 -9.99
2019/12/13 07:54 EST    4.27   4.28    3  316    4  30.2  41.9 1033.4 21.6  1.018 -99.9 -99.99 -9.99
2019/12/13 08:00 EST    4.29   4.34    2  332    3  30.9  41.7 1033.4 21.6  1.018 -99.9 -99.99 -9.99
2019/12/13 08:06 EST    4.30   4.36    7  159   12  40.6  41.7 1033.2 21.7  1.018 -99.9 -99.99 -9.99
2019/12/13 08:12 EST    4.30   4.37   11  164   14  41.9  41.9 1033.1 21.7  1.018 -99.9 -99.99 -9.99
2019/12/13 08:18 EST    4.30   4.39   11  153   13  41.9  41.7 1032.9 21.7  1.018 -99.9 -99.99 -9.99
2019/12/13 08:24 EST    4.29   4.45   11  154   13  42.1  41.7 1032.8 21.8  1.018 -99.9 -99.99 -9.99
2019/12/13 08:30 EST    4.27   4.47    9  157   13  42.3  41.9 1032.8 21.7  1.018 -99.9 -99.99 -9.99
2019/12/13 08:36 EST    4.25   4.51   12  154   13  42.4  41.9 1032.7 21.7  1.018 -99.9 -99.99 -9.99
2019/12/13 08:42 EST    4.22   4.50   12  154   14  42.6  41.9 1032.7 21.8  1.018 -99.9 -99.99 -9.99
2019/12/13 08:48 EST    4.18   4.47   11  153   13  42.6  41.7 1032.6 21.8  1.018 -99.9 -99.99 -9.99
2019/12/13 08:54 EST    4.14   4.45   13  151   14  42.8  41.7 1032.5 21.8  1.018 -99.9 -99.99 -9.99
2019/12/13 09:00 EST    4.09   4.46   12  150   16  42.8  41.7 1032.3 21.8  1.018 -99.9 -99.99 -9.99
2019/12/13 09:06 EST    4.03   4.43   12  153   16  43.0  41.7 1032.3 21.8  1.018 -99.9 -99.99 -9.99
2019/12/13 09:12 EST    3.97   4.39   12  147   14  43.2  41.7 1032.3 21.8  1.018 -99.9 -99.99 -9.99
2019/12/13 09:18 EST    3.90   4.34   11  149   14  43.2  41.5 1032.3 21.7  1.018 -99.9 -99.99 -9.99
2019/12/13 09:24 EST    3.83   4.26   10  155   12  43.3  41.7 1032.3 21.6  1.018 -99.9 -99.99 -9.99
2019/12/13 09:30 EST    3.75   4.22   10  155   11  43.5  41.7 1032.3 21.6  1.018 -99.9 -99.99 -9.99
2019/12/13 09:36 EST    3.67   4.17   11  153   13  43.9  41.7 1032.2 21.7  1.018 -99.9 -99.99 -9.99
2019/12/13 09:42 EST    3.58   4.10    8  152   13  43.7  41.9 1032.3 21.7  1.018 -99.9 -99.99 -9.99
2019/12/13 09:48 EST    3.48   4.00    8  145   11  43.9  41.9 1032.3 21.8  1.018 -99.9 -99.99 -9.99
2019/12/13 09:54 EST    3.38   3.92    7  155   10  44.2  41.9 1032.3 21.8  1.018 -99.9 -99.99 -9.99
2019/12/13 10:00 EST    3.28   3.83   10  153   12  44.6  42.1 1032.2 21.7  1.018 -99.9 -99.99 -9.99
2019/12/13 10:06 EST    3.18   3.72   10  156   12  44.4  42.1 1032.2 21.8  1.018 -99.9 -99.99 -9.99
2019/12/13 10:12 EST    3.07   3.61    9  156   12  44.8  42.1 1032.2 21.6  1.018 -99.9 -99.99 -9.99
2019/12/13 10:18 EST    2.96   3.52    7  143   10  44.6  41.9 1032.0 21.8  1.018 -99.9 -99.99 -9.99
2019/12/13 10:24 EST    2.84   3.40    8  142    9  45.1  41.9 1031.8 21.8  1.018 -99.9 -99.99 -9.99
2019/12/13 10:30 EST    2.73   3.27    9  155   12  45.5  42.1 1031.8 21.8  1.018 -99.9 -99.99 -9.99
2019/12/13 10:36 EST    2.61   3.13    9  148   12  45.7  41.9 1031.9 21.8  1.018 -99.9 -99.99 -9.99
2019/12/13 10:42 EST    2.49   3.01   10  146   12  45.7  42.3 1031.7 21.7  1.018 -99.9 -99.99 -9.99
2019/12/13 10:48 EST    2.37   2.87   10  143   13  45.3  42.1 1031.5 21.8  1.018 -99.9 -99.99 -9.99
2019/12/13 10:54 EST    2.25   2.71    8  139   10  45.3  42.4 1031.5 21.8  1.018 -99.9 -99.99 -9.99
2019/12/13 11:00 EST    2.12   2.59   11  147   13  45.5  42.4 1031.4 21.7  1.018 -99.9 -99.99 -9.99
2019/12/13 11:06 EST    2.00   2.45   10  138   11  45.3  42.4 1031.2 21.7  1.018 -99.9 -99.99 -9.99
2019/12/13 11:12 EST    1.88   2.31    8  135   10  45.5  42.4 1030.9 21.7  1.018 -99.9 -99.99 -9.99
2019/12/13 11:18 EST    1.76   2.14    7  127   10  45.3  42.4 1030.6 21.8  1.018 -99.9 -99.99 -9.99
2019/12/13 11:24 EST    1.64   1.97    8  122   10  45.5  42.4 1030.3 21.8  1.018 -99.9 -99.99 -9.99
2019/12/13 11:30 EST    1.52   1.80    7  118    9  45.5  42.3 1030.2 21.8  1.018 -99.9 -99.99 -9.99
2019/12/13 11:36 EST    1.40   1.61    6  119   10  45.3  42.1 1030.3 21.6  1.018 -99.9 -99.99 -9.99
2019/12/13 11:42 EST    1.29   1.51    7  126    9  45.7  42.3 1030.2 21.7  1.018 -99.9 -99.99 -9.99
2019/12/13 11:48 EST    1.18   1.40    6  125    7  45.9  42.1 1030.1 21.7  1.018 -99.9 -99.99 -9.99
2019/12/13 11:54 EST    1.07   1.26    5  125    9  45.7  42.1 1030.1 21.8  1.018 -99.9 -99.99 -9.99
2019/12/13 12:00 EST    0.96   1.11    7  123   10  46.2  42.3 1030.3 21.8  1.018 -99.9 -99.99 -9.99
2019/12/13 12:06 EST    0.86   0.95    4  110   10  44.6  42.3 1030.5 21.7  1.018 -99.9 -99.99 -9.99
2019/12/13 12:12 EST    0.76   0.82    5  348    6  41.0  42.3 1030.3 21.8  1.018 -99.9 -99.99 -9.99
2019/12/13 12:18 EST    0.66   0.68    5    2    6  40.5  42.4 1030.2 21.8  1.018 -99.9 -99.99 -9.99
2019/12/13 12:24 EST    0.57   0.57    6   14    6  40.3  42.4 1030.1 21.9  1.018 -99.9 -99.99 -9.99
2019/12/13 12:30 EST    0.48   0.51    6    6    7  40.1  42.4 1030.0 21.8  1.018 -99.9 -99.99 -9.99
2019/12/13 12:36 EST    0.40   0.38    6   18    7  39.7  42.4 1029.8 21.9  1.018 -99.9 -99.99 -9.99
2019/12/13 12:42 EST    0.32   0.24    7    8    8  39.6  42.8 1029.6 21.9  1.018 -99.9 -99.99 -9.99
2019/12/13 12:48 EST    0.25   0.16    8    6    9  39.4  42.4 1029.4 21.8  1.018 -99.9 -99.99 -9.99
2019/12/13 12:54 EST    0.18   0.10    7    8    9  39.6  42.4 1029.1 21.9  1.018 -99.9 -99.99 -9.99
2019/12/13 13:00 EST    0.12   0.05    8    4    9  39.2  42.4 1028.9 21.8  1.018 -99.9 -99.99 -9.99
2019/12/13 13:06 EST    0.06   0.02    7  360    9  39.0  42.6 1028.9 21.8  1.018 -99.9 -99.99 -9.99
2019/12/13 13:12 EST    0.01  -0.01    7    3    8  39.4  42.4 1028.7 21.9  1.018 -99.9 -99.99 -9.99
2019/12/13 13:18 EST   -0.04  -0.06    6    5    8  39.6  42.3 1028.7 21.9  1.018 -99.9 -99.99 -9.99
2019/12/13 13:24 EST   -0.08  -0.13    7    8    8  39.2  42.1 1028.7 21.9  1.018 -99.9 -99.99 -9.99
2019/12/13 13:30 EST   -0.11  -0.18    6  354    8  39.4  42.1 1028.7 21.7  1.018 -99.9 -99.99 -9.99
2019/12/13 13:36 EST   -0.14  -0.16    7  344    9  39.4  41.9 1028.7 21.7  1.018 -99.9 -99.99 -9.99
2019/12/13 13:42 EST   -0.17  -0.10    6  357    9  39.4  41.9 1028.6 21.5  1.018 -99.9 -99.99 -9.99
2019/12/13 13:48 EST   -0.19  -0.16    5    6    7  39.2  41.9 1028.3 21.6  1.018 -99.9 -99.99 -9.99
2019/12/13 13:54 EST   -0.20  -0.25    5    5    6  39.6  41.9 1028.3 21.7  1.018 -99.9 -99.99 -9.99
2019/12/13 14:00 EST   -0.21  -0.23    5    3    7  39.6  41.9 1028.2 21.5  1.018 -99.9 -99.99 -9.99
2019/12/13 14:06 EST   -0.22  -0.20    6  360    7  39.7  41.9 1028.3 21.4  1.018 -99.9 -99.99 -9.99
2019/12/13 14:12 EST   -0.22  -0.24    6    8    7  39.7  41.7 1028.0 21.5  1.018 -99.9 -99.99 -9.99
2019/12/13 14:18 EST   -0.22  -0.26    6   12    7  39.7  41.7 1027.8 21.5  1.018 -99.9 -99.99 -9.99
2019/12/13 14:24 EST   -0.21  -0.18    7   12    8  39.7  41.9 1027.7 21.6  1.018 -99.9 -99.99 -9.99
2019/12/13 14:30 EST   -0.20  -0.14    7    4    8  39.7  41.9 1027.7 21.6  1.018 -99.9 -99.99 -9.99
2019/12/13 14:36 EST   -0.19  -0.17    7    3    8  39.9  41.9 1027.7 21.5  1.018 -99.9 -99.99 -9.99
2019/12/13 14:42 EST   -0.17  -0.12    7  358    9  40.1  41.9 1027.6 21.5  1.018 -99.9 -99.99 -9.99
2019/12/13 14:48 EST   -0.15  -0.04    7  357    8  40.1  41.9 1027.5 21.5  1.018 -99.9 -99.99 -9.99
2019/12/13 14:54 EST   -0.12  -0.02    6    6    8  40.5  41.9 1027.3 21.5  1.018 -99.9 -99.99 -9.99
2019/12/13 15:00 EST   -0.10   0.00    5   13    7  40.3  41.7 1027.2 21.5  1.018 -99.9 -99.99 -9.99
2019/12/13 15:06 EST   -0.07   0.02    5   11    6  40.3  41.7 1027.1 21.5  1.018 -99.9 -99.99 -9.99
2019/12/13 15:12 EST   -0.04   0.06    6    7    8  40.6  41.7 1027.0 21.4  1.018 -99.9 -99.99 -9.99
2019/12/13 15:18 EST   -0.00   0.12    5  354    7  40.6  41.7 1027.0 21.5  1.018 -99.9 -99.99 -9.99
2019/12/13 15:24 EST    0.04   0.18    4   13    6  41.2  41.7 1026.8 21.5  1.018 -99.9 -99.99 -9.99
2019/12/13 15:30 EST    0.07   0.23    5   39    6  42.1  41.7 1026.7 21.5  1.018 -99.9 -99.99 -9.99
2019/12/13 15:36 EST    0.11   0.26    4   45    5  43.2  41.7 1026.8 21.5  1.018 -99.9 -99.99 -9.99
2019/12/13 15:42 EST    0.16   0.26    4  335    5  41.5  41.7 1026.8 21.5  1.018 -99.9 -99.99 -9.99
2019/12/13 15:48 EST    0.20   0.32    6  341    6  41.9  41.7 1026.8 21.5  1.018 -99.9 -99.99 -9.99
2019/12/13 15:54 EST    0.25   0.41    5  332    7  41.5  41.7 1026.9 21.5  1.018 -99.9 -99.99 -9.99
2019/12/13 16:00 EST    0.30   0.52    5  336    7  41.5  41.7 1026.9 21.5  1.018 -99.9 -99.99 -9.99
2019/12/13 16:06 EST    0.35   0.57    6  345    7  41.5  41.7 1026.7 21.5  1.018 -99.9 -99.99 -9.99
2019/12/13 16:12 EST    0.40   0.60    6  343    7  41.0  41.7 1026.7 21.5  1.018 -99.9 -99.99 -9.99
2019/12/13 16:18 EST    0.45   0.68    6  343    7  40.5  41.7 1026.6 21.5  1.018 -99.9 -99.99 -9.99
2019/12/13 16:24 EST    0.51   0.77    7  355    8  41.0  41.7 1026.5 21.6  1.018 -99.9 -99.99 -9.99
2019/12/13 16:30 EST    0.57   0.85    6  360    8  41.2  41.7 1026.4 21.6  1.018 -99.9 -99.99 -9.99
2019/12/13 16:36 EST    0.63   0.93    7  359    8  41.4  41.7 1026.3 21.5  1.018 -99.9 -99.99 -9.99
2019/12/13 16:42 EST    0.70   1.03    7    0    8  41.4  41.7 1026.2 21.5  1.018 -99.9 -99.99 -9.99
2019/12/13 16:48 EST    0.76   1.11    6  348    8  41.0  41.9 1026.2 21.7  1.018 -99.9 -99.99 -9.99
2019/12/13 16:54 EST    0.83   1.14    7    1    8  41.4  41.7 1026.0 21.7  1.018 -99.9 -99.99 -9.99
2019/12/13 17:00 EST    0.90   1.20    8   11    9  41.5  41.7 1025.8 21.6  1.018 -99.9 -99.99 -9.99
2019/12/13 17:06 EST    0.98   1.31    6   10    9  41.7  41.7 1025.7 21.3  1.018 -99.9 -99.99 -9.99
2019/12/13 17:12 EST    1.05   1.39    7    7    8  41.7  41.7 1025.8 21.3  1.018 -99.9 -99.99 -9.99
2019/12/13 17:18 EST    1.13   1.51    6    1    8  41.5  41.7 1025.8 21.3  1.018 -99.9 -99.99 -9.99
2019/12/13 17:24 EST    1.22   1.62    6    6    7  41.7  41.7 1025.6 21.6  1.018 -99.9 -99.99 -9.99
2019/12/13 17:30 EST    1.30   1.70    6    2    7  41.9  41.7 1025.6 21.6  1.018 -99.9 -99.99 -9.99
2019/12/13 17:36 EST    1.39   1.81    6  353    7  41.9  41.7 1025.6 21.5  1.018 -99.9 -99.99 -9.99
2019/12/13 17:42 EST    1.48   1.93    6  352    7  41.9  41.7 1025.5 21.3  1.018 -99.9 -99.99 -9.99
2019/12/13 17:48 EST    1.57   2.06    6  348    7  41.7  41.7 1025.4 21.3  1.018 -99.9 -99.99 -9.99
2019/12/13 17:54 EST    1.67   2.17    6  356    8  41.7  41.7 1025.3 21.3  1.018 -99.9 -99.99 -9.99
2019/12/13 18:00 EST    1.77   2.22    5  345    6  41.4  41.7 1025.2 21.5  1.018 -99.9 -99.99 -9.99
2019/12/13 18:06 EST    1.86   2.31    6  339    7  41.2  41.7 1025.2 21.2  1.018 -99.9 -99.99 -9.99
2019/12/13 18:12 EST    1.96   2.40    6  344    7  41.5  41.7 1025.1 21.3  1.018 -99.9 -99.99 -9.99
2019/12/13 18:18 EST    2.06   2.48    6  343    8  41.4  41.7 1025.1 21.3  1.018 -99.9 -99.99 -9.99
2019/12/13 18:24 EST    2.17   2.58    6  340    6  41.0  41.7 1025.1 21.3  1.018 -99.9 -99.99 -9.99
2019/12/13 18:30 EST    2.27   2.66    5  339    6  41.2  41.7 1025.1 21.3  1.018 -99.9 -99.99 -9.99
2019/12/13 18:36 EST    2.37   2.75    6  340    6  41.2  41.7 1025.0 21.3  1.018 -99.9 -99.99 -9.99
2019/12/13 18:42 EST    2.47   2.82    5  338    6  41.4  41.7 1025.0 21.1  1.018 -99.9 -99.99 -9.99
2019/12/13 18:48 EST    2.57   2.92    6  343    7  41.2  41.7 1024.9 21.2  1.018 -99.9 -99.99 -9.99
2019/12/13 18:54 EST    2.67   3.04    6  337    7  41.2  41.7 1024.9 21.1  1.018 -99.9 -99.99 -9.99
2019/12/13 19:00 EST    2.77   3.15    5  343    7  41.2  41.7 1024.7 21.1  1.018 -99.9 -99.99 -9.99
2019/12/13 19:06 EST    2.86   3.22    5  346    6  41.2  41.7 1024.5 21.1  1.018 -99.9 -99.99 -9.99
2019/12/13 19:12 EST    2.96   3.29    5  351    6  41.2  41.7 1024.5 21.2  1.018 -99.9 -99.99 -9.99
2019/12/13 19:18 EST    3.05   3.37    6  354    7  41.4  41.7 1024.2 21.1  1.018 -99.9 -99.99 -9.99
2019/12/13 19:24 EST    3.13   3.44    7  355    8  41.4  41.7 1024.0 21.1  1.018 -99.9 -99.99 -9.99
2019/12/13 19:30 EST    3.21   3.48    7  345    8  41.4  41.7 1024.0 21.2  1.018 -99.9 -99.99 -9.99
2019/12/13 19:36 EST    3.29   3.51    6  351    9  41.5  41.7 1023.9 21.2  1.018 -99.9 -99.99 -9.99
2019/12/13 19:42 EST    3.36   3.55    6  354    8  41.9  41.7 1023.8 21.3  1.018 -99.9 -99.99 -9.99
2019/12/13 19:48 EST    3.43   3.58    6  347    9  41.9  41.7 1023.7 21.5  1.018 -99.9 -99.99 -9.99
2019/12/13 19:54 EST    3.49   3.63    6  338    7  41.5  41.7 1023.7 21.5  1.018 -99.9 -99.99 -9.99
2019/12/13 20:00 EST    3.54   3.67    6  341    7  41.7  41.7 1023.7 21.5  1.018 -99.9 -99.99 -9.99
2019/12/13 20:06 EST    3.59   3.73    5  347    7  41.9  41.7 1023.5 21.5  1.018 -99.9 -99.99 -9.99
2019/12/13 20:12 EST    3.63   3.74    6  352    8  42.1  41.7 1023.3 21.5  1.018 -99.9 -99.99 -9.99
2019/12/13 20:18 EST    3.66   3.76    6  345    7  42.1  41.7 1023.2 21.5  1.018 -99.9 -99.99 -9.99
2019/12/13 20:24 EST    3.69   3.77    4  342    6  42.1  41.7 1023.1 21.5  1.018 -99.9 -99.99 -9.99
2019/12/13 20:30 EST    3.70   3.79    6  346    7  41.9  41.7 1022.9 21.5  1.018 -99.9 -99.99 -9.99
2019/12/13 20:36 EST    3.72   3.81    6  345    7  42.1  41.9 1022.8 21.5  1.018 -99.9 -99.99 -9.99
2019/12/13 20:42 EST    3.72   3.81    5  347    7  41.9  41.9 1022.6 21.6  1.018 -99.9 -99.99 -9.99
2019/12/13 20:48 EST    3.72   3.83    4  339    7  41.7  42.1 1022.5 21.5  1.018 -99.9 -99.99 -9.99
2019/12/13 20:54 EST    3.70   3.82    5  345    7  42.1  42.1 1022.3 21.6  1.018 -99.9 -99.99 -9.99
2019/12/13 21:00 EST    3.68   3.82    5  337    7  41.9  42.1 1022.2 21.6  1.018 -99.9 -99.99 -9.99
2019/12/13 21:06 EST    3.66   3.82    5  339    6  42.1  41.9 1022.0 21.6  1.018 -99.9 -99.99 -9.99
2019/12/13 21:12 EST    3.62   3.82    5  343    6  42.1  42.1 1021.9 21.5  1.018 -99.9 -99.99 -9.99
2019/12/13 21:18 EST    3.58   3.82    5  344    6  42.3  41.9 1021.7 21.5  1.018 -99.9 -99.99 -9.99
2019/12/13 21:24 EST    3.53   3.78    6  340    6  42.3  41.9 1021.4 21.6  1.018 -99.9 -99.99 -9.99
2019/12/13 21:30 EST    3.48   3.73    7  343    8  42.4  41.9 1021.2 21.6  1.018 -99.9 -99.99 -9.99
2019/12/13 21:36 EST    3.41   3.68    8  343    9  42.4  42.1 1021.1 21.6  1.018 -99.9 -99.99 -9.99
2019/12/13 21:42 EST    3.34   3.60    7  348    9  42.4  42.1 1020.9 21.5  1.018 -99.9 -99.99 -9.99
2019/12/13 21:48 EST    3.27   3.51    5  334    9  42.4  42.1 1020.7 21.5  1.018 -99.9 -99.99 -9.99
2019/12/13 21:54 EST    3.19   3.46    8    6    9  43.5  42.1 1020.6 21.5  1.018 -99.9 -99.99 -9.99
2019/12/13 22:00 EST    3.10   3.43    9    5   10  43.7  42.1 1020.5 21.6  1.018 -99.9 -99.99 -9.99
2019/12/13 22:06 EST    3.01   3.39    7   19    9  44.4  42.1 1020.5 21.6  1.018 -99.9 -99.99 -9.99
2019/12/13 22:12 EST    2.91   3.32    8   17    9  43.9  42.1 1020.3 21.6  1.018 -99.9 -99.99 -9.99
2019/12/13 22:18 EST    2.81   3.26    9   29   11  44.4  42.1 1019.9 21.6  1.018 -99.9 -99.99 -9.99
2019/12/13 22:24 EST    2.70   3.20    9   38   11  44.6  42.1 1019.8 21.6  1.018 -99.9 -99.99 -9.99
2019/12/13 22:30 EST    2.59   3.11    8   51   10  45.5  42.1 1019.9 21.5  1.018 -99.9 -99.99 -9.99
2019/12/13 22:36 EST    2.48   3.02    7   53    9  45.7  42.1 1019.8 21.7  1.018 -99.9 -99.99 -9.99
2019/12/13 22:42 EST    2.37   2.93    6   52    8  46.0  42.1 1019.7 21.6  1.018 -99.9 -99.99 -9.99
2019/12/13 22:48 EST    2.25   2.87    7   73    8  46.9  42.1 1019.6 21.6  1.018 -99.9 -99.99 -9.99
2019/12/13 22:54 EST    2.13   2.75    5   81    8  46.9  42.1 1019.4 21.7  1.018 -99.9 -99.99 -9.99
2019/12/13 23:00 EST    2.01   2.61    5   96    6  47.5  42.1 1019.3 21.6  1.018 -99.9 -99.99 -9.99
2019/12/13 23:06 EST    1.88   2.51    6   94    8  47.8  42.1 1019.0 21.6  1.018 -99.9 -99.99 -9.99
2019/12/13 23:12 EST    1.76   2.43    6   90    8  47.7  42.3 1018.7 21.6  1.018 -99.9 -99.99 -9.99
2019/12/13 23:18 EST    1.63   2.32    5   85    7  47.7  42.4 1018.6 21.6  1.018 -99.9 -99.99 -9.99
2019/12/13 23:24 EST    1.51   2.20    5   75    6  47.7  42.4 1018.3 21.6  1.018 -99.9 -99.99 -9.99
2019/12/13 23:30 EST    1.39   2.10    6   83    7  48.2  42.4 1018.2 21.7  1.018 -99.9 -99.99 -9.99
2019/12/13 23:36 EST    1.26   1.98    5   87    6  48.2  42.4 1018.1 21.7  1.018 -99.9 -99.99 -9.99
2019/12/13 23:42 EST    1.14   1.86    7   86    8  48.0  42.4 1017.8 21.3  1.018 -99.9 -99.99 -9.99
2019/12/13 23:48 EST    1.03   1.78    9   90   10  48.4  42.4 1017.5 21.4  1.018 -99.9 -99.99 -9.99
2019/12/13 23:54 EST    0.91   1.70    8   89   11  48.6  42.3 1017.3 21.5  1.018 -99.9 -99.99 -9.99
2019/12/14 00:00 EST    0.79   1.64    8   89   10  48.4  42.1 1017.1 21.4  1.018 -99.9 -99.99 -9.99
2019/12/14 00:06 EST    0.68   1.53    9   92   10  48.4  42.3 1016.8 21.5  1.018 -99.9 -99.99 -9.99
2019/12/14 00:12 EST    0.58   1.39    9   88   12  48.7  42.3 1016.6 21.5  1.018 -99.9 -99.99 -9.99
2019/12/14 00:18 EST    0.47   1.29    9   88   11  48.7  42.3 1016.4 21.5  1.018 -99.9 -99.99 -9.99
2019/12/14 00:24 EST    0.37   1.18   10   85   11  48.7  42.3 1016.1 21.5  1.018 -99.9 -99.99 -9.99
2019/12/14 00:30 EST    0.28   1.10    9   86   11  48.9  42.3 1015.9 21.6  1.018 -99.9 -99.99 -9.99
2019/12/14 00:36 EST    0.19   1.02   11   94   13  49.1  42.3 1015.7 21.6  1.018 -99.9 -99.99 -9.99
2019/12/14 00:42 EST    0.11   0.95   10   98   17  49.3  42.3 1015.4 21.6  1.018 -99.9 -99.99 -9.99
2019/12/14 00:48 EST    0.03   0.87   11  102   13  49.8  42.3 1015.1 21.7  1.018 -99.9 -99.99 -9.99
2019/12/14 00:54 EST   -0.05   0.75   10  100   16  49.5  42.4 1015.0 21.6  1.018 -99.9 -99.99 -9.99
2019/12/14 01:00 EST   -0.11   0.69   13  103   16  49.6  42.3 1014.7 21.5  1.018 -99.9 -99.99 -9.99
2019/12/14 01:06 EST   -0.17   0.67   16  110   22  50.4  42.3 1014.3 21.6  1.018 -99.9 -99.99 -9.99
2019/12/14 01:12 EST   -0.23   0.66   15  108   19  50.0  42.3 1014.0 21.5  1.018 -99.9 -99.99 -9.99
2019/12/14 01:18 EST   -0.27   0.65   17  108   21  50.2  42.1 1013.6 21.5  1.018 -99.9 -99.99 -9.99
2019/12/14 01:24 EST   -0.31   0.61   17  115   22  50.0  42.1 1013.6 21.5  1.018 -99.9 -99.99 -9.99
2019/12/14 01:30 EST   -0.35   0.58   18  116   22  51.1  42.1 1013.2 21.7  1.018 -99.9 -99.99 -9.99
2019/12/14 01:36 EST   -0.38   0.55   23  111   26  51.6  42.1 1012.7 21.6  1.018 -99.9 -99.99 -9.99
2019/12/14 01:42 EST   -0.40   0.58   23  110   30  51.4  42.1 1012.7 21.5  1.018 -99.9 -99.99 -9.99
2019/12/14 01:48 EST   -0.41   0.63   19  114   24  51.6  42.1 1012.6 21.5  1.018 -99.9 -99.99 -9.99
2019/12/14 01:54 EST   -0.42   0.63   19  116   22  51.8  42.1 1012.2 21.4  1.018 -99.9 -99.99 -9.99
2019/12/14 02:00 EST   -0.42   0.60   20  114   26  51.4  42.1 1011.7 21.4  1.018 -99.9 -99.99 -9.99
2019/12/14 02:06 EST   -0.42   0.64   22  114   26  51.1  42.1 1011.3 21.5  1.018 -99.9 -99.99 -9.99
2019/12/14 02:12 EST   -0.40   0.67   23  117   27  52.2  42.1 1011.1 21.5  1.018 -99.9 -99.99 -9.99
2019/12/14 02:18 EST   -0.39   0.73   22  120   26  51.8  42.1 1010.9 21.5  1.018 -99.9 -99.99 -9.99
2019/12/14 02:24 EST   -0.37   0.81   22  121   26  52.2  42.1 1010.6 21.5  1.018 -99.9 -99.99 -9.99
2019/12/14 02:30 EST   -0.34   0.92   24  119   28  52.7  42.1 1010.3 21.5  1.018 -99.9 -99.99 -9.99
2019/12/14 02:36 EST   -0.31   1.00   23  132   30  52.5  42.1 1010.1 21.5  1.018 -99.9 -99.99 -9.99
2019/12/14 02:42 EST   -0.27   1.06   26  127   33  52.5  42.1 1009.8 21.4  1.018 -99.9 -99.99 -9.99
2019/12/14 02:48 EST   -0.23   1.11   24  125   34  52.2  42.1 1009.6 21.5  1.018 -99.9 -99.99 -9.99
2019/12/14 02:54 EST   -0.18   1.16   24  130   29  52.3  42.3 1009.3 21.4  1.018 -99.9 -99.99 -9.99
2019/12/14 03:00 EST   -0.13   1.25   26  131   33  52.2  42.3 1009.1 21.4  1.018 -99.9 -99.99 -9.99
2019/12/14 03:06 EST   -0.08   1.37   25  131   34  52.3  42.3 1008.8 21.4  1.018 -99.9 -99.99 -9.99
2019/12/14 03:12 EST   -0.02   1.46   27  131   33  52.7  42.3 1008.6 21.5  1.018 -99.9 -99.99 -9.99
2019/12/14 03:18 EST    0.04   1.48   24  126   32  52.7  42.3 1008.2 21.4  1.018 -99.9 -99.99 -9.99
2019/12/14 03:24 EST    0.10   1.53   26  128   31  52.7  42.3 1008.0 21.4  1.018 -99.9 -99.99 -9.99
2019/12/14 03:30 EST    0.17   1.65   25  125   31  52.5  42.3 1007.8 21.4  1.018 -99.9 -99.99 -9.99
2019/12/14 03:36 EST    0.23   1.79   22  127   30  52.0  42.3 1007.7 21.3  1.018 -99.9 -99.99 -9.99
2019/12/14 03:42 EST    0.30   1.84   23  129   30  52.0  42.3 1007.4 21.3  1.018 -99.9 -99.99 -9.99
2019/12/14 03:48 EST    0.37   1.90   22  125   31  51.8  42.3 1007.0 21.4  1.018 -99.9 -99.99 -9.99
2019/12/14 03:54 EST    0.44   1.96   23  132   29  51.6  42.3 1006.9 21.4  1.018 -99.9 -99.99 -9.99
2019/12/14 04:00 EST    0.51   2.07   24  132   28  52.0  42.3 1006.4 21.2  1.018 -99.9 -99.99 -9.99
2019/12/14 04:06 EST    0.59   2.19   25  128   33  51.8  42.3 1006.1 21.2  1.018 -99.9 -99.99 -9.99
2019/12/14 04:12 EST    0.66   2.27   25  133   30  52.0  42.3 1006.0 21.2  1.018 -99.9 -99.99 -9.99
2019/12/14 04:18 EST    0.74   2.34   24  136   32  52.0  42.3 1006.0 21.0  1.017 -99.9 -99.99 -9.99
2019/12/14 04:24 EST    0.81   2.43   22  134   30  52.3  42.3 1005.8 21.1  1.017 -99.9 -99.99 -9.99
2019/12/14 04:30 EST    0.89   2.49   19  143   27  52.0  42.3 1006.0 21.1  1.018 -99.9 -99.99 -9.99
2019/12/14 04:36 EST    0.97   2.58   18  138   23  52.0  42.3 1005.6 21.1  1.018 -99.9 -99.99 -9.99
2019/12/14 04:42 EST    1.05   2.66   20  137   28  51.8  42.3 1005.4 21.2  1.018 -99.9 -99.99 -9.99
2019/12/14 04:48 EST    1.13   2.75   22  137   27  52.2  42.3 1005.2 21.1  1.018 -99.9 -99.99 -9.99
2019/12/14 04:54 EST    1.21   2.78   24  132   30  52.3  42.3 1004.9 21.0  1.017 -99.9 -99.99 -9.99
2019/12/14 05:00 EST    1.29   2.83   23  135   30  52.2  42.3 1004.8 21.0  1.017 -99.9 -99.99 -9.99
2019/12/14 05:06 EST    1.37   2.93   21  136   28  51.8  42.3 1004.7 21.0  1.017 -99.9 -99.99 -9.99
2019/12/14 05:12 EST    1.45   3.02   22  134   27  52.2  42.3 1004.5 21.0  1.017 -99.9 -99.99 -9.99
2019/12/14 05:18 EST    1.54   3.09   24  135   27  52.5  42.3 1004.3 21.0  1.017 -99.9 -99.99 -9.99
2019/12/14 05:24 EST    1.62   3.19   21  135   27  52.3  42.3 1004.1 21.0  1.017 -99.9 -99.99 -9.99
2019/12/14 05:30 EST    1.71   3.26   21  135   25  52.3  42.3 1004.0 21.0  1.017 -99.9 -99.99 -9.99
2019/12/14 05:36 EST    1.80   3.29   23  137   27  52.7  42.3 1003.9 21.0  1.017 -99.9 -99.99 -9.99
2019/12/14 05:42 EST    1.89   3.37   23  133   28  52.3  42.3 1003.8 21.0  1.017 -99.9 -99.99 -9.99
2019/12/14 05:48 EST    1.98   3.45   21  133   27  52.0  42.3 1003.6 21.0  1.017 -99.9 -99.99 -9.99
2019/12/14 05:54 EST    2.07   3.48   22  135   26  52.5  42.3 1003.4 21.0  1.017 -99.9 -99.99 -9.99
2019/12/14 06:00 EST    2.16   3.62   21  135   30  52.5  42.3 1003.2 21.0  1.017 -99.9 -99.99 -9.99
2019/12/14 06:06 EST    2.26   3.67   19  137   26  52.7  42.3 1003.1 21.0  1.017 -99.9 -99.99 -9.99
2019/12/14 06:12 EST    2.35   3.71   20  146   27  53.2  42.3 1003.0 21.0  1.017 -99.9 -99.99 -9.99
2019/12/14 06:18 EST    2.45   3.76   23  144   30  53.8  42.3 1002.8 21.0  1.017 -99.9 -99.99 -9.99
2019/12/14 06:24 EST    2.54   3.86   20  140   25  53.6  42.4 1002.6 20.9  1.017 -99.9 -99.99 -9.99
2019/12/14 06:30 EST    2.64   3.91   19  144   23  53.1  42.4 1002.5 20.9  1.017 -99.9 -99.99 -9.99
2019/12/14 06:36 EST    2.74   3.96   18  139   24  53.1  42.4 1002.3 20.9  1.017 -99.9 -99.99 -9.99
2019/12/14 06:42 EST    2.83   4.04   18  143   23  53.6  42.4 1002.3 20.9  1.017 -99.9 -99.99 -9.99
2019/12/14 06:48 EST    2.93   4.08   22  146   25  54.0  42.4 1002.1 21.0  1.017 -99.9 -99.99 -9.99
2019/12/14 06:54 EST    3.03   4.16   20  144   26  54.0  42.4 1001.9 20.8  1.017 -99.9 -99.99 -9.99
2019/12/14 07:00 EST    3.12   4.26   20  141   24  53.6  42.4 1001.8 20.8  1.017 -99.9 -99.99 -9.99
2019/12/14 07:06 EST    3.22   4.37   19  142   22  53.2  42.4 1001.7 20.9  1.017 -99.9 -99.99 -9.99
2019/12/14 07:12 EST    3.31   4.42   18  143   22  53.4  42.4 1001.6 20.7  1.017 -99.9 -99.99 -9.99
2019/12/14 07:18 EST    3.40   4.49   18  145   21  53.4  42.4 1001.5 20.9  1.017 -99.9 -99.99 -9.99
2019/12/14 07:24 EST    3.49   4.63   20  148   24  53.1  42.4 1001.5 20.9  1.017 -99.9 -99.99 -9.99
2019/12/14 07:30 EST    3.58   4.70   19  145   21  53.1  42.4 1001.3 20.9  1.017 -99.9 -99.99 -9.99
2019/12/14 07:36 EST    3.66   4.78   18  143   22  53.2  42.4 1001.1 20.9  1.017 -99.9 -99.99 -9.99
2019/12/14 07:42 EST    3.74   4.82   18  146   21  53.4  42.4 1000.9 20.9  1.017 -99.9 -99.99 -9.99
2019/12/14 07:48 EST    3.82   4.86   18  145   21  53.4  42.4 1000.8 20.9  1.017 -99.9 -99.99 -9.99
2019/12/14 07:54 EST    3.89   4.92   17  144   20  53.8  42.4 1000.6 20.9  1.017 -99.9 -99.99 -9.99
2019/12/14 08:00 EST    3.95   4.98   18  143   23  53.8  42.4 1000.5 20.8  1.017 -99.9 -99.99 -9.99
2019/12/14 08:06 EST    4.01   5.07   18  145   20  54.0  42.4 1000.4 20.9  1.017 -99.9 -99.99 -9.99
2019/12/14 08:12 EST    4.07   5.18   17  146   20  53.6  42.6 1000.2 20.8  1.017 -99.9 -99.99 -9.99
2019/12/14 08:18 EST    4.12   5.25   17  145   20  53.6  42.6 1000.1 20.9  1.017 -99.9 -99.99 -9.99
2019/12/14 08:24 EST    4.16   5.24   18  143   21  53.6  42.6  999.9 20.6  1.017 -99.9 -99.99 -9.99
2019/12/14 08:30 EST    4.20   5.28   15  148   18  53.4  42.4  999.8 20.7  1.017 -99.9 -99.99 -9.99
2019/12/14 08:36 EST    4.23   5.27   13  146   15  53.2  42.4  999.6 20.7  1.017 -99.9 -99.99 -9.99
2019/12/14 08:42 EST    4.26   5.35   15  147   17  54.1  42.4  999.3 20.9  1.017 -99.9 -99.99 -9.99
2019/12/14 08:48 EST    4.28   5.39   11  153   15  54.0  42.4  999.2 20.8  1.017 -99.9 -99.99 -9.99
2019/12/14 08:54 EST    4.29   5.43   10  159   11  53.2  42.6  999.0 20.8  1.017 -99.9 -99.99 -9.99
2019/12/14 09:00 EST    4.29   5.41   11  157   12  53.2  42.6  998.8 20.8  1.017 -99.9 -99.99 -9.99
2019/12/14 09:06 EST    4.29   5.44   10  161   13  54.0  42.6  998.6 20.8  1.017 -99.9 -99.99 -9.99
2019/12/14 09:12 EST    4.28   5.49   11  157   12  53.6  42.6  998.4 20.8  1.017 -99.9 -99.99 -9.99
2019/12/14 09:18 EST    4.26 -99.99 -999 -999 -999 -99.9 -99.9 -999.9 -9.9 -9.999 -99.9 -99.99 -9.99
2019/12/14 09:24 EST    4.24 -99.99 -999 -999 -999 -99.9 -99.9 -999.9 -9.9 -9.999 -99.9 -99.99 -9.99
2019/12/14 09:30 EST    4.21 -99.99 -999 -999 -999 -99.9 -99.9 -999.9 -9.9 -9.999 -99.9 -99.99 -9.99
2019/12/14 09:36 EST    4.17   5.40 -999 -999 -999 -99.9 -99.9 -999.9 -9.9 -9.999 -99.9 -99.99 -9.99
2019/12/14 09:42 EST    4.12   5.39    4  222    5  51.3  42.6  997.4 20.7  1.017 -99.9 -99.99 -9.99
2019/12/14 09:48 EST    4.07   5.39    4  223    5  50.9  42.6  997.2 20.9  1.017 -99.9 -99.99 -9.99
2019/12/14 09:54 EST    4.01   5.41    6  211    6  51.3  42.6  997.0 20.8  1.017 -99.9 -99.99 -9.99
2019/12/14 10:00 EST    3.95   5.38    5  208    6  50.9  42.4  996.9 20.8  1.017 -99.9 -99.99 -9.99
2019/12/14 10:06 EST    3.88   5.33    8  204    8  52.7  42.4  996.7 20.7  1.017 -99.9 -99.99 -9.99
2019/12/14 10:12 EST    3.80   5.30    8  211    9  50.4  42.4  996.8 20.8  1.017 -99.9 -99.99 -9.99
2019/12/14 10:18 EST    3.72   5.28   11  199   12  55.4  42.4  996.8 20.7  1.017 -99.9 -99.99 -9.99
2019/12/14 10:24 EST    3.63   5.19   11  204   13  54.9  42.4  996.8 20.7  1.017 -99.9 -99.99 -9.99
2019/12/14 10:30 EST    3.54   5.11   12  194   14  53.6  42.4  996.6 20.8  1.017 -99.9 -99.99 -9.99
2019/12/14 10:36 EST    3.45   5.04   10  198   13  52.3  42.4  996.5 21.0  1.017 -99.9 -99.99 -9.99
2019/12/14 10:42 EST    3.35   4.95    9  184   11  50.7  42.6  996.3 20.7  1.017 -99.9 -99.99 -9.99
2019/12/14 10:48 EST    3.24   4.81    9  183   10  49.5  42.6  996.3 20.9  1.017 -99.9 -99.99 -9.99
2019/12/14 10:54 EST    3.13   4.74   10  179   10  49.8  42.6  996.4 20.7  1.017 -99.9 -99.99 -9.99
2019/12/14 11:00 EST    3.02   4.67   10  185   11  49.5  42.6  996.5 20.8  1.017 -99.9 -99.99 -9.99
2019/12/14 11:06 EST    2.91   4.52   11  186   12  50.2  42.6  996.5 20.9  1.017 -99.9 -99.99 -9.99
2019/12/14 11:12 EST    2.79   4.40   11  190   12  52.5  42.6  996.4 20.9  1.017 -99.9 -99.99 -9.99
2019/12/14 11:18 EST    2.67   4.33    9  186   11  51.4  42.6  996.3 21.0  1.017 -99.9 -99.99 -9.99
2019/12/14 11:24 EST    2.55   4.25    9  197   13  53.4  42.6  996.3 21.0  1.017 -99.9 -99.99 -9.99
2019/12/14 11:30 EST    2.43   4.13   13  203   15  56.1  42.6  996.1 21.0  1.017 -99.9 -99.99 -9.99
2019/12/14 11:36 EST    2.31   3.99   12  201   15  57.0  42.6  995.9 21.0  1.017 -99.9 -99.99 -9.99
2019/12/14 11:42 EST    2.19   3.88   13  201   15  56.8  42.6  995.8 21.1  1.018 -99.9 -99.99 -9.99
2019/12/14 11:48 EST    2.06   3.74   11  201   14  57.2  42.8  995.5 21.0  1.017 -99.9 -99.99 -9.99
2019/12/14 11:54 EST    1.94   3.60    8  182   13  52.5  42.8  995.2 21.1  1.017 -99.9 -99.99 -9.99
2019/12/14 12:00 EST    1.82   3.48    8  184   10  52.7  42.8  995.0 21.0  1.017 -99.9 -99.99 -9.99
2019/12/14 12:06 EST    1.70   3.31    9  204   11  55.4  43.0  994.9 21.0  1.017 -99.9 -99.99 -9.99
2019/12/14 12:12 EST    1.58   3.17   11  206   12  55.6  42.8  994.9 21.4  1.018 -99.9 -99.99 -9.99
2019/12/14 12:18 EST    1.46   3.07   11  205   13  55.8  42.8  994.7 21.4  1.018 -99.9 -99.99 -9.99
2019/12/14 12:24 EST    1.34   2.94   10  201   11  56.5  43.0  994.6 21.4  1.018 -99.9 -99.99 -9.99
2019/12/14 12:30 EST    1.23   2.74   11  197   12  56.8  42.8  994.5 21.2  1.018 -99.9 -99.99 -9.99
2019/12/14 12:36 EST    1.12   2.62    9  175   13  53.1  42.8  994.4 21.1  1.018 -99.9 -99.99 -9.99
2019/12/14 12:42 EST    1.01   2.51   10  177   11  52.7  42.8  994.3 21.0  1.017 -99.9 -99.99 -9.99
2019/12/14 12:48 EST    0.90   2.38   11  175   12  51.6  42.6  994.3 21.2  1.018 -99.9 -99.99 -9.99
2019/12/14 12:54 EST    0.80   2.21   11  173   12  51.6  42.6  994.2 21.5  1.018 -99.9 -99.99 -9.99
2019/12/14 13:00 EST    0.70   2.08   11  172   13  52.3  42.6  994.1 21.4  1.018 -99.9 -99.99 -9.99
2019/12/14 13:06 EST    0.61   1.97   11  173   13  52.3  42.6  993.9 21.4  1.018 -99.9 -99.99 -9.99
2019/12/14 13:12 EST    0.52   1.82   10  171   12  51.4  42.6  993.6 21.4  1.018 -99.9 -99.99 -9.99
2019/12/14 13:18 EST    0.44   1.72   10  173   11  52.2  42.8  993.5 21.3  1.018 -99.9 -99.99 -9.99
2019/12/14 13:24 EST    0.36   1.66   11  179   12  50.2  43.0  993.5 21.5  1.018 -99.9 -99.99 -9.99
2019/12/14 13:30 EST    0.28   1.57   11  178   11  49.8  43.0  993.3 21.5  1.018 -99.9 -99.99 -9.99
2019/12/14 13:36 EST    0.22   1.47    8  172   11  51.1  43.0  993.0 21.5  1.018 -99.9 -99.99 -9.99
2019/12/14 13:42 EST    0.15   1.44   11  174   12  51.4  43.0  993.0 21.5  1.018 -99.9 -99.99 -9.99
2019/12/14 13:48 EST    0.09   1.37   10  173   11  52.5  43.0  992.9 21.4  1.018 -99.9 -99.99 -9.99
2019/12/14 13:54 EST    0.04   1.27    9  175   12  51.8  43.0  992.7 21.2  1.018 -99.9 -99.99 -9.99
2019/12/14 14:00 EST   -0.01   1.25   11  177   13  51.8  43.0  992.7 21.2  1.018 -99.9 -99.99 -9.99
2019/12/14 14:06 EST   -0.05   1.22   12  176   14  51.6  43.0  992.6 21.3  1.018 -99.9 -99.99 -9.99
2019/12/14 14:12 EST   -0.09   1.18   14  176   16  51.8  43.0  992.4 21.2  1.018 -99.9 -99.99 -9.99
2019/12/14 14:18 EST   -0.12   1.10   14  173   16  52.9  43.0  992.2 21.1  1.018 -99.9 -99.99 -9.99
2019/12/14 14:24 EST   -0.14   1.05   15  174   17  52.3  43.0  992.2 21.0  1.017 -99.9 -99.99 -9.99
2019/12/14 14:30 EST   -0.16   1.07   15  173   17  52.7  43.3  992.1 20.6  1.017 -99.9 -99.99 -9.99
2019/12/14 14:36 EST   -0.18   1.01   15  174   17  51.6  43.3  992.2 20.6  1.017 -99.9 -99.99 -9.99
2019/12/14 14:42 EST   -0.19   1.03   16  176   18  51.3  43.2  992.1 20.7  1.017 -99.9 -99.99 -9.99
2019/12/14 14:48 EST   -0.19   1.01   16  175   17  50.9  43.5  992.2 20.5  1.017 -99.9 -99.99 -9.99
2019/12/14 14:54 EST   -0.19   0.98   16  178   17  50.7  43.5  992.0 20.5  1.017 -99.9 -99.99 -9.99
2019/12/14 15:00 EST   -0.19   1.04   14  177   16  50.4  43.3  992.0 20.9  1.017 -99.9 -99.99 -9.99
2019/12/14 15:06 EST   -0.18   1.11   15  178   16  50.2  43.0  992.0 21.0  1.017 -99.9 -99.99 -9.99
2019/12/14 15:12 EST   -0.17   1.18   14  181   16  50.4  43.0  992.0 21.1  1.017 -99.9 -99.99 -9.99
2019/12/14 15:18 EST   -0.16   1.19   15  182   16  50.4  43.2  992.0 21.0  1.017 -99.9 -99.99 -9.99
2019/12/14 15:24 EST   -0.14   1.24   15  180   16  50.2  43.2  992.0 21.0  1.017 -99.9 -99.99 -9.99
2019/12/14 15:30 EST   -0.12   1.25   14  181   15  50.7  43.0  991.9 21.1  1.017 -99.9 -99.99 -9.99
2019/12/14 15:36 EST   -0.09   1.29   13  178   15  50.4  43.0  991.9 21.1  1.017 -99.9 -99.99 -9.99
2019/12/14 15:42 EST   -0.07   1.29   13  177   14  50.4  43.0  991.9 21.1  1.017 -99.9 -99.99 -9.99
2019/12/14 15:48 EST   -0.04   1.36   13  182   14  50.7  43.3  991.8 21.0  1.017 -99.9 -99.99 -9.99
2019/12/14 15:54 EST   -0.01   1.41   12  174   14  51.3  43.2  991.6 21.0  1.017 -99.9 -99.99 -9.99
2019/12/14 16:00 EST    0.03   1.48   11  177   14  50.5  43.3  991.7 21.1  1.017 -99.9 -99.99 -9.99
2019/12/14 16:06 EST    0.06   1.47   12  177   14  50.7  43.3  991.5 21.0  1.017 -99.9 -99.99 -9.99
2019/12/14 16:12 EST    0.10   1.51   12  180   14  51.1  43.3  991.3 21.0  1.017 -99.9 -99.99 -9.99
2019/12/14 16:18 EST    0.14   1.59   13  176   15  52.2  43.3  991.0 21.0  1.017 -99.9 -99.99 -9.99
2019/12/14 16:24 EST    0.18   1.65   13  177   16  51.4  43.2  990.8 21.1  1.017 -99.9 -99.99 -9.99
2019/12/14 16:30 EST    0.22   1.75   13  180   15  51.1  43.3  990.8 21.0  1.017 -99.9 -99.99 -9.99
2019/12/14 16:36 EST    0.27   1.83   13  172   15  52.5  43.5  990.5 20.9  1.017 -99.9 -99.99 -9.99
2019/12/14 16:42 EST    0.31   1.85   14  172   16  52.5  43.3  990.6 21.0  1.017 -99.9 -99.99 -9.99
2019/12/14 16:48 EST    0.36   1.91   14  171   18  53.4  43.2  990.5 21.0  1.017 -99.9 -99.99 -9.99
2019/12/14 16:54 EST    0.41   2.00   15  173   17  53.2  43.2  990.5 21.1  1.017 -99.9 -99.99 -9.99
2019/12/14 17:00 EST    0.46   2.11   15  170   19  52.9  43.2  990.5 21.1  1.017 -99.9 -99.99 -9.99
2019/12/14 17:06 EST    0.51   2.16   15  170   17  53.2  43.3  990.4 21.0  1.017 -99.9 -99.99 -9.99
2019/12/14 17:12 EST    0.56   2.23   13  174   17  52.3  43.5  990.3 21.0  1.017 -99.9 -99.99 -9.99
2019/12/14 17:18 EST    0.62   2.33   13  177   14  51.4  43.5  990.2 21.0  1.017 -99.9 -99.99 -9.99
2019/12/14 17:24 EST    0.68   2.40   13  176   15  50.7  43.5  990.2 21.0  1.017 -99.9 -99.99 -9.99
2019/12/14 17:30 EST    0.74   2.48   15  176   17  50.7  43.3  990.0 21.1  1.017 -99.9 -99.99 -9.99
2019/12/14 17:36 EST    0.80   2.57   16  177   18  50.7  43.7  989.9 20.9  1.017 -99.9 -99.99 -9.99
2019/12/14 17:42 EST    0.86 -99.99 -999 -999 -999 -99.9 -99.9 -999.9 -9.9 -9.999 -99.9 -99.99 -9.99
2019/12/14 17:48 EST    0.93 -99.99 -999 -999 -999 -99.9 -99.9 -999.9 -9.9 -9.999 -99.9 -99.99 -9.99
2019/12/14 17:54 EST    1.00 -99.99 -999 -999 -999 -99.9 -99.9 -999.9 -9.9 -9.999 -99.9 -99.99 -9.99